<?xml version="1.0" encoding="utf-8"?>
<gpx xmlns:xsi="http://www.w3.org/2001/XMLSchema-instance" xmlns:xsd="http://www.w3.org/2001/XMLSchema" version="1.1" creator="Shapelink.com" xmlns="http://www.topografix.com/GPX/1/1" xmlns:gpxtpx="http://www.garmin.com/xmlschemas/TrackPointExtension/v1">
  <metadata>
    <name>Kører 15.57 km, 2019-12-22</name>
    <desc></desc>
    <author><name>Per Rooth</name></author> 
    <time>2019-12-22T06:44:37Z</time>
  </metadata>
  <trk>
    <name>Kører 15.57 km, 2019-12-22</name>
    <trkseg>
      <trkpt lat="58.571861324191" lon="15.937951761017">
        <ele>46.2</ele>
        <time>2019-12-22T06:44:37Z</time>
      </trkpt>
      <trkpt lat="58.571769542386" lon="15.93762461546">
        <ele>45.4</ele>
        <time>2019-12-22T06:44:46Z</time>
      </trkpt>
      <trkpt lat="58.571684885196" lon="15.937344492362">
        <ele>45.8</ele>
        <time>2019-12-22T06:44:54Z</time>
      </trkpt>
      <trkpt lat="58.57149595717" lon="15.937456390727">
        <ele>45.6</ele>
        <time>2019-12-22T06:45:03Z</time>
      </trkpt>
      <trkpt lat="58.571430243074" lon="15.937462760971">
        <ele>45</ele>
        <time>2019-12-22T06:45:06Z</time>
      </trkpt>
      <trkpt lat="58.57141129998" lon="15.937442392954">
        <ele>45</ele>
        <time>2019-12-22T06:45:07Z</time>
      </trkpt>
      <trkpt lat="58.571353297232" lon="15.937117007596">
        <ele>46</ele>
        <time>2019-12-22T06:45:15Z</time>
      </trkpt>
      <trkpt lat="58.571347681359" lon="15.937075014277">
        <ele>46.2</ele>
        <time>2019-12-22T06:45:16Z</time>
      </trkpt>
      <trkpt lat="58.571281212892" lon="15.936750048014">
        <ele>46.4</ele>
        <time>2019-12-22T06:45:24Z</time>
      </trkpt>
      <trkpt lat="58.571260006685" lon="15.936366995184">
        <ele>46.2</ele>
        <time>2019-12-22T06:45:32Z</time>
      </trkpt>
      <trkpt lat="58.571249948405" lon="15.936014033375">
        <ele>46.2</ele>
        <time>2019-12-22T06:45:39Z</time>
      </trkpt>
      <trkpt lat="58.571247769111" lon="15.935920407552">
        <ele>45.8</ele>
        <time>2019-12-22T06:45:41Z</time>
      </trkpt>
      <trkpt lat="58.571225305619" lon="15.935582533163">
        <ele>45</ele>
        <time>2019-12-22T06:45:48Z</time>
      </trkpt>
      <trkpt lat="58.571186078327" lon="15.935197301039">
        <ele>44.8</ele>
        <time>2019-12-22T06:45:56Z</time>
      </trkpt>
      <trkpt lat="58.571168392518" lon="15.934866383627">
        <ele>44.6</ele>
        <time>2019-12-22T06:46:03Z</time>
      </trkpt>
      <trkpt lat="58.571146851035" lon="15.934510152877">
        <ele>44.2</ele>
        <time>2019-12-22T06:46:11Z</time>
      </trkpt>
      <trkpt lat="58.571133691452" lon="15.934372522079">
        <ele>44</ele>
        <time>2019-12-22T06:46:14Z</time>
      </trkpt>
      <trkpt lat="58.571101504956" lon="15.93399357638">
        <ele>43.2</ele>
        <time>2019-12-22T06:46:22Z</time>
      </trkpt>
      <trkpt lat="58.571097900739" lon="15.933841193438">
        <ele>43</ele>
        <time>2019-12-22T06:46:25Z</time>
      </trkpt>
      <trkpt lat="58.571095134712" lon="15.933490159466">
        <ele>42.6</ele>
        <time>2019-12-22T06:46:32Z</time>
      </trkpt>
      <trkpt lat="58.571098236015" lon="15.933118589839">
        <ele>42</ele>
        <time>2019-12-22T06:46:40Z</time>
      </trkpt>
      <trkpt lat="58.571112569064" lon="15.9327513788">
        <ele>42.6</ele>
        <time>2019-12-22T06:46:48Z</time>
      </trkpt>
      <trkpt lat="58.571121453878" lon="15.932395818602">
        <ele>42.4</ele>
        <time>2019-12-22T06:46:56Z</time>
      </trkpt>
      <trkpt lat="58.57115313746" lon="15.932018465464">
        <ele>42.8</ele>
        <time>2019-12-22T06:47:05Z</time>
      </trkpt>
      <trkpt lat="58.571142324809" lon="15.931668940234">
        <ele>43.4</ele>
        <time>2019-12-22T06:47:13Z</time>
      </trkpt>
      <trkpt lat="58.571140480791" lon="15.931624516164">
        <ele>43.4</ele>
        <time>2019-12-22T06:47:14Z</time>
      </trkpt>
      <trkpt lat="58.571154227107" lon="15.931506499012">
        <ele>44</ele>
        <time>2019-12-22T06:47:17Z</time>
      </trkpt>
      <trkpt lat="58.571193454399" lon="15.931207684277">
        <ele>45</ele>
        <time>2019-12-22T06:47:25Z</time>
      </trkpt>
      <trkpt lat="58.57121013438" lon="15.930831169329">
        <ele>45.6</ele>
        <time>2019-12-22T06:47:33Z</time>
      </trkpt>
      <trkpt lat="58.571214241511" lon="15.930685827183">
        <ele>46.4</ele>
        <time>2019-12-22T06:47:36Z</time>
      </trkpt>
      <trkpt lat="58.571234190433" lon="15.930304534552">
        <ele>46.8</ele>
        <time>2019-12-22T06:47:45Z</time>
      </trkpt>
      <trkpt lat="58.571246511826" lon="15.930090796102">
        <ele>47.2</ele>
        <time>2019-12-22T06:47:50Z</time>
      </trkpt>
      <trkpt lat="58.571251708604" lon="15.930052742276">
        <ele>47.4</ele>
        <time>2019-12-22T06:47:51Z</time>
      </trkpt>
      <trkpt lat="58.571289091878" lon="15.929706150711">
        <ele>47.2</ele>
        <time>2019-12-22T06:47:59Z</time>
      </trkpt>
      <trkpt lat="58.571316668329" lon="15.929428877459">
        <ele>46.2</ele>
        <time>2019-12-22T06:48:05Z</time>
      </trkpt>
      <trkpt lat="58.571321362193" lon="15.929376909679">
        <ele>46.2</ele>
        <time>2019-12-22T06:48:06Z</time>
      </trkpt>
      <trkpt lat="58.571351201757" lon="15.929152693854">
        <ele>45.2</ele>
        <time>2019-12-22T06:48:11Z</time>
      </trkpt>
      <trkpt lat="58.571391686334" lon="15.928809538868">
        <ele>44.4</ele>
        <time>2019-12-22T06:48:18Z</time>
      </trkpt>
      <trkpt lat="58.57139788894" lon="15.928763689875">
        <ele>44</ele>
        <time>2019-12-22T06:48:19Z</time>
      </trkpt>
      <trkpt lat="58.571454969679" lon="15.928407962039">
        <ele>43</ele>
        <time>2019-12-22T06:48:27Z</time>
      </trkpt>
      <trkpt lat="58.571462178113" lon="15.928360771942">
        <ele>42.8</ele>
        <time>2019-12-22T06:48:28Z</time>
      </trkpt>
      <trkpt lat="58.57146997328" lon="15.928315844958">
        <ele>42.6</ele>
        <time>2019-12-22T06:48:29Z</time>
      </trkpt>
      <trkpt lat="58.571492185315" lon="15.928167736785">
        <ele>41.8</ele>
        <time>2019-12-22T06:48:32Z</time>
      </trkpt>
      <trkpt lat="58.571576758686" lon="15.927852912621">
        <ele>41.2</ele>
        <time>2019-12-22T06:48:39Z</time>
      </trkpt>
      <trkpt lat="58.571625289887" lon="15.927703630982">
        <ele>40.8</ele>
        <time>2019-12-22T06:48:43Z</time>
      </trkpt>
      <trkpt lat="58.571710114715" lon="15.927367768249">
        <ele>40.4</ele>
        <time>2019-12-22T06:48:50Z</time>
      </trkpt>
      <trkpt lat="58.571792592611" lon="15.927020338494">
        <ele>40</ele>
        <time>2019-12-22T06:48:58Z</time>
      </trkpt>
      <trkpt lat="58.571891331393" lon="15.92670132338">
        <ele>40</ele>
        <time>2019-12-22T06:49:06Z</time>
      </trkpt>
      <trkpt lat="58.571909855392" lon="15.926622701158">
        <ele>39.8</ele>
        <time>2019-12-22T06:49:08Z</time>
      </trkpt>
      <trkpt lat="58.571991914193" lon="15.926280803457">
        <ele>40.2</ele>
        <time>2019-12-22T06:49:16Z</time>
      </trkpt>
      <trkpt lat="58.572051844778" lon="15.9259536579">
        <ele>40.2</ele>
        <time>2019-12-22T06:49:24Z</time>
      </trkpt>
      <trkpt lat="58.572139938547" lon="15.925636570623">
        <ele>40</ele>
        <time>2019-12-22T06:49:31Z</time>
      </trkpt>
      <trkpt lat="58.572217219665" lon="15.925273550534">
        <ele>40.2</ele>
        <time>2019-12-22T06:49:38Z</time>
      </trkpt>
      <trkpt lat="58.57229307586" lon="15.924956714714">
        <ele>40</ele>
        <time>2019-12-22T06:49:45Z</time>
      </trkpt>
      <trkpt lat="58.572363148544" lon="15.924618337411">
        <ele>40</ele>
        <time>2019-12-22T06:49:52Z</time>
      </trkpt>
      <trkpt lat="58.572364992562" lon="15.924241571006">
        <ele>40.4</ele>
        <time>2019-12-22T06:50:00Z</time>
      </trkpt>
      <trkpt lat="58.57233414717" lon="15.924008889462">
        <ele>40.8</ele>
        <time>2019-12-22T06:50:05Z</time>
      </trkpt>
      <trkpt lat="58.57224278446" lon="15.923698172429">
        <ele>40.4</ele>
        <time>2019-12-22T06:50:12Z</time>
      </trkpt>
      <trkpt lat="58.572158462546" lon="15.923392233079">
        <ele>40</ele>
        <time>2019-12-22T06:50:19Z</time>
      </trkpt>
      <trkpt lat="58.572074056813" lon="15.923066763902">
        <ele>39.8</ele>
        <time>2019-12-22T06:50:26Z</time>
      </trkpt>
      <trkpt lat="58.572060142859" lon="15.923017226873">
        <ele>39.4</ele>
        <time>2019-12-22T06:50:27Z</time>
      </trkpt>
      <trkpt lat="58.571966768493" lon="15.922708102401">
        <ele>39</ele>
        <time>2019-12-22T06:50:34Z</time>
      </trkpt>
      <trkpt lat="58.571908681926" lon="15.922489586268">
        <ele>38.4</ele>
        <time>2019-12-22T06:50:39Z</time>
      </trkpt>
      <trkpt lat="58.57183123317" lon="15.922178785416">
        <ele>38.2</ele>
        <time>2019-12-22T06:50:46Z</time>
      </trkpt>
      <trkpt lat="58.571749174369" lon="15.921831020385">
        <ele>38</ele>
        <time>2019-12-22T06:50:54Z</time>
      </trkpt>
      <trkpt lat="58.571745821609" lon="15.921695149786">
        <ele>38.2</ele>
        <time>2019-12-22T06:50:58Z</time>
      </trkpt>
      <trkpt lat="58.571735344234" lon="15.921667489516">
        <ele>38.6</ele>
        <time>2019-12-22T06:50:59Z</time>
      </trkpt>
      <trkpt lat="58.571666612654" lon="15.921343864357">
        <ele>38</ele>
        <time>2019-12-22T06:51:08Z</time>
      </trkpt>
      <trkpt lat="58.571586146414" lon="15.921025855071">
        <ele>37.8</ele>
        <time>2019-12-22T06:51:16Z</time>
      </trkpt>
      <trkpt lat="58.571498555559" lon="15.920687142492">
        <ele>38</ele>
        <time>2019-12-22T06:51:24Z</time>
      </trkpt>
      <trkpt lat="58.57139621256" lon="15.920362846781">
        <ele>39.4</ele>
        <time>2019-12-22T06:51:33Z</time>
      </trkpt>
      <trkpt lat="58.571288840421" lon="15.920086998452">
        <ele>40.2</ele>
        <time>2019-12-22T06:51:41Z</time>
      </trkpt>
      <trkpt lat="58.571267885671" lon="15.920011058438">
        <ele>40.6</ele>
        <time>2019-12-22T06:51:43Z</time>
      </trkpt>
      <trkpt lat="58.571352961956" lon="15.919719787413">
        <ele>41.4</ele>
        <time>2019-12-22T06:51:51Z</time>
      </trkpt>
      <trkpt lat="58.571369641937" lon="15.919696234274">
        <ele>41.8</ele>
        <time>2019-12-22T06:51:52Z</time>
      </trkpt>
      <trkpt lat="58.571531747883" lon="15.919538654554">
        <ele>42.4</ele>
        <time>2019-12-22T06:51:58Z</time>
      </trkpt>
      <trkpt lat="58.571686058662" lon="15.919312594711">
        <ele>42.4</ele>
        <time>2019-12-22T06:52:06Z</time>
      </trkpt>
      <trkpt lat="58.571845314762" lon="15.919090893456">
        <ele>40.8</ele>
        <time>2019-12-22T06:52:14Z</time>
      </trkpt>
      <trkpt lat="58.571862749114" lon="15.919056443847">
        <ele>40.6</ele>
        <time>2019-12-22T06:52:15Z</time>
      </trkpt>
      <trkpt lat="58.571983029379" lon="15.918825606321">
        <ele>39.8</ele>
        <time>2019-12-22T06:52:22Z</time>
      </trkpt>
      <trkpt lat="58.571998284437" lon="15.918803142829">
        <ele>39.6</ele>
        <time>2019-12-22T06:52:23Z</time>
      </trkpt>
      <trkpt lat="58.572134490312" lon="15.918581693031">
        <ele>40.6</ele>
        <time>2019-12-22T06:52:31Z</time>
      </trkpt>
      <trkpt lat="58.572276814974" lon="15.918336773913">
        <ele>41</ele>
        <time>2019-12-22T06:52:39Z</time>
      </trkpt>
      <trkpt lat="58.572413439944" lon="15.918082969981">
        <ele>40.8</ele>
        <time>2019-12-22T06:52:48Z</time>
      </trkpt>
      <trkpt lat="58.57250094698" lon="15.917917511275">
        <ele>40</ele>
        <time>2019-12-22T06:52:54Z</time>
      </trkpt>
      <trkpt lat="58.572636566122" lon="15.917673430347">
        <ele>39.8</ele>
        <time>2019-12-22T06:53:02Z</time>
      </trkpt>
      <trkpt lat="58.572716613267" lon="15.917383248969">
        <ele>40</ele>
        <time>2019-12-22T06:53:09Z</time>
      </trkpt>
      <trkpt lat="58.572606391282" lon="15.917122990974">
        <ele>40.2</ele>
        <time>2019-12-22T06:53:17Z</time>
      </trkpt>
      <trkpt lat="58.572439172377" lon="15.916963986331">
        <ele>40.4</ele>
        <time>2019-12-22T06:53:25Z</time>
      </trkpt>
      <trkpt lat="58.572339343948" lon="15.916855356907">
        <ele>39.4</ele>
        <time>2019-12-22T06:53:29Z</time>
      </trkpt>
      <trkpt lat="58.572195175268" lon="15.91663382329">
        <ele>39</ele>
        <time>2019-12-22T06:53:35Z</time>
      </trkpt>
      <trkpt lat="58.572120324901" lon="15.916327297207">
        <ele>38.6</ele>
        <time>2019-12-22T06:53:41Z</time>
      </trkpt>
      <trkpt lat="58.572132562475" lon="15.91611163092">
        <ele>38.4</ele>
        <time>2019-12-22T06:53:45Z</time>
      </trkpt>
      <trkpt lat="58.572248484152" lon="15.91585011564">
        <ele>38.2</ele>
        <time>2019-12-22T06:53:52Z</time>
      </trkpt>
      <trkpt lat="58.572285699788" lon="15.915791023245">
        <ele>38.4</ele>
        <time>2019-12-22T06:53:54Z</time>
      </trkpt>
      <trkpt lat="58.572454259797" lon="15.915610309481">
        <ele>38.2</ele>
        <time>2019-12-22T06:54:02Z</time>
      </trkpt>
      <trkpt lat="58.572617706847" lon="15.915438480531">
        <ele>38.4</ele>
        <time>2019-12-22T06:54:09Z</time>
      </trkpt>
      <trkpt lat="58.572777801137" lon="15.915258102043">
        <ele>38.2</ele>
        <time>2019-12-22T06:54:16Z</time>
      </trkpt>
      <trkpt lat="58.572959353091" lon="15.915079064659">
        <ele>38.2</ele>
        <time>2019-12-22T06:54:24Z</time>
      </trkpt>
      <trkpt lat="58.573122548684" lon="15.914889717538">
        <ele>38</ele>
        <time>2019-12-22T06:54:32Z</time>
      </trkpt>
      <trkpt lat="58.573281720965" lon="15.914654353786">
        <ele>38.2</ele>
        <time>2019-12-22T06:54:40Z</time>
      </trkpt>
      <trkpt lat="58.573424464722" lon="15.914423851536">
        <ele>39</ele>
        <time>2019-12-22T06:54:48Z</time>
      </trkpt>
      <trkpt lat="58.573459752521" lon="15.914367692806">
        <ele>39.4</ele>
        <time>2019-12-22T06:54:50Z</time>
      </trkpt>
      <trkpt lat="58.573585229564" lon="15.914114978521">
        <ele>40</ele>
        <time>2019-12-22T06:54:58Z</time>
      </trkpt>
      <trkpt lat="58.573712718263" lon="15.913810967008">
        <ele>40.2</ele>
        <time>2019-12-22T06:55:06Z</time>
      </trkpt>
      <trkpt lat="58.573738031601" lon="15.913739469401">
        <ele>40.4</ele>
        <time>2019-12-22T06:55:08Z</time>
      </trkpt>
      <trkpt lat="58.573850684337" lon="15.913421124839">
        <ele>41</ele>
        <time>2019-12-22T06:55:16Z</time>
      </trkpt>
      <trkpt lat="58.573977586303" lon="15.913128345072">
        <ele>41</ele>
        <time>2019-12-22T06:55:24Z</time>
      </trkpt>
      <trkpt lat="58.574111445246" lon="15.912837996056">
        <ele>40.6</ele>
        <time>2019-12-22T06:55:32Z</time>
      </trkpt>
      <trkpt lat="58.574243460171" lon="15.912566841591">
        <ele>39.6</ele>
        <time>2019-12-22T06:55:40Z</time>
      </trkpt>
      <trkpt lat="58.574312946122" lon="15.912420493617">
        <ele>39.4</ele>
        <time>2019-12-22T06:55:44Z</time>
      </trkpt>
      <trkpt lat="58.574431047093" lon="15.912151853722">
        <ele>38.4</ele>
        <time>2019-12-22T06:55:51Z</time>
      </trkpt>
      <trkpt lat="58.574460719019" lon="15.912082619228">
        <ele>38.2</ele>
        <time>2019-12-22T06:55:53Z</time>
      </trkpt>
      <trkpt lat="58.574582927121" lon="15.91176561577">
        <ele>37.4</ele>
        <time>2019-12-22T06:56:01Z</time>
      </trkpt>
      <trkpt lat="58.574608072821" lon="15.911673163413">
        <ele>37.2</ele>
        <time>2019-12-22T06:56:03Z</time>
      </trkpt>
      <trkpt lat="58.574684515749" lon="15.911344173838">
        <ele>36.6</ele>
        <time>2019-12-22T06:56:10Z</time>
      </trkpt>
      <trkpt lat="58.574748302008" lon="15.910995989712">
        <ele>36.6</ele>
        <time>2019-12-22T06:56:17Z</time>
      </trkpt>
      <trkpt lat="58.574793228992" lon="15.910711843302">
        <ele>37.2</ele>
        <time>2019-12-22T06:56:23Z</time>
      </trkpt>
      <trkpt lat="58.574849052446" lon="15.910484945269">
        <ele>38.4</ele>
        <time>2019-12-22T06:56:29Z</time>
      </trkpt>
      <trkpt lat="58.57490822866" lon="15.910237930676">
        <ele>39.8</ele>
        <time>2019-12-22T06:56:35Z</time>
      </trkpt>
      <trkpt lat="58.574988359624" lon="15.909924782892">
        <ele>40.8</ele>
        <time>2019-12-22T06:56:43Z</time>
      </trkpt>
      <trkpt lat="58.57506161743" lon="15.909572491635">
        <ele>41.6</ele>
        <time>2019-12-22T06:56:51Z</time>
      </trkpt>
      <trkpt lat="58.575077794497" lon="15.909485571332">
        <ele>41.8</ele>
        <time>2019-12-22T06:56:53Z</time>
      </trkpt>
      <trkpt lat="58.575144262964" lon="15.909120120492">
        <ele>41.4</ele>
        <time>2019-12-22T06:57:01Z</time>
      </trkpt>
      <trkpt lat="58.575204361187" lon="15.908782749017">
        <ele>40.8</ele>
        <time>2019-12-22T06:57:08Z</time>
      </trkpt>
      <trkpt lat="58.575213246001" lon="15.908732122341">
        <ele>40.6</ele>
        <time>2019-12-22T06:57:09Z</time>
      </trkpt>
      <trkpt lat="58.57526026846" lon="15.908511846009">
        <ele>39.6</ele>
        <time>2019-12-22T06:57:14Z</time>
      </trkpt>
      <trkpt lat="58.575338387768" lon="15.90815217868">
        <ele>38.8</ele>
        <time>2019-12-22T06:57:22Z</time>
      </trkpt>
      <trkpt lat="58.575354481016" lon="15.908063917273">
        <ele>38.6</ele>
        <time>2019-12-22T06:57:24Z</time>
      </trkpt>
      <trkpt lat="58.575422961139" lon="15.907713470034">
        <ele>38</ele>
        <time>2019-12-22T06:57:32Z</time>
      </trkpt>
      <trkpt lat="58.575473755453" lon="15.907348186832">
        <ele>37.8</ele>
        <time>2019-12-22T06:57:40Z</time>
      </trkpt>
      <trkpt lat="58.575504265569" lon="15.907134029287">
        <ele>37.4</ele>
        <time>2019-12-22T06:57:45Z</time>
      </trkpt>
      <trkpt lat="58.575552126218" lon="15.906763884583">
        <ele>37</ele>
        <time>2019-12-22T06:57:53Z</time>
      </trkpt>
      <trkpt lat="58.575605518921" lon="15.906390387119">
        <ele>37.4</ele>
        <time>2019-12-22T06:58:01Z</time>
      </trkpt>
      <trkpt lat="58.575656480873" lon="15.906006160823">
        <ele>38</ele>
        <time>2019-12-22T06:58:09Z</time>
      </trkpt>
      <trkpt lat="58.575693361233" lon="15.905665185131">
        <ele>37.6</ele>
        <time>2019-12-22T06:58:16Z</time>
      </trkpt>
      <trkpt lat="58.575724793358" lon="15.905320186127">
        <ele>37.6</ele>
        <time>2019-12-22T06:58:23Z</time>
      </trkpt>
      <trkpt lat="58.575756560759" lon="15.904963536282">
        <ele>37.8</ele>
        <time>2019-12-22T06:58:30Z</time>
      </trkpt>
      <trkpt lat="58.575770307075" lon="15.904586937515">
        <ele>38.2</ele>
        <time>2019-12-22T06:58:38Z</time>
      </trkpt>
      <trkpt lat="58.57577156436" lon="15.904493395511">
        <ele>38.6</ele>
        <time>2019-12-22T06:58:40Z</time>
      </trkpt>
      <trkpt lat="58.575738204398" lon="15.904100032944">
        <ele>38.8</ele>
        <time>2019-12-22T06:58:48Z</time>
      </trkpt>
      <trkpt lat="58.575718255476" lon="15.903728128041">
        <ele>39.4</ele>
        <time>2019-12-22T06:58:56Z</time>
      </trkpt>
      <trkpt lat="58.575717584924" lon="15.903483795656">
        <ele>39.6</ele>
        <time>2019-12-22T06:59:01Z</time>
      </trkpt>
      <trkpt lat="58.575750777248" lon="15.90312722963">
        <ele>39.8</ele>
        <time>2019-12-22T06:59:08Z</time>
      </trkpt>
      <trkpt lat="58.5758101211" lon="15.902800922263">
        <ele>40.2</ele>
        <time>2019-12-22T06:59:15Z</time>
      </trkpt>
      <trkpt lat="58.575894359195" lon="15.902480230769">
        <ele>39.8</ele>
        <time>2019-12-22T06:59:23Z</time>
      </trkpt>
      <trkpt lat="58.57599871385" lon="15.902167669718">
        <ele>39</ele>
        <time>2019-12-22T06:59:31Z</time>
      </trkpt>
      <trkpt lat="58.576095273338" lon="15.90185904816">
        <ele>38.8</ele>
        <time>2019-12-22T06:59:38Z</time>
      </trkpt>
      <trkpt lat="58.576128800938" lon="15.901724853941">
        <ele>38.4</ele>
        <time>2019-12-22T06:59:41Z</time>
      </trkpt>
      <trkpt lat="58.576198119251" lon="15.901392511606">
        <ele>38</ele>
        <time>2019-12-22T06:59:48Z</time>
      </trkpt>
      <trkpt lat="58.576237011267" lon="15.901213893317">
        <ele>37.4</ele>
        <time>2019-12-22T06:59:52Z</time>
      </trkpt>
      <trkpt lat="58.576298953508" lon="15.900873588177">
        <ele>37.6</ele>
        <time>2019-12-22T06:59:59Z</time>
      </trkpt>
      <trkpt lat="58.576376318445" lon="15.900527080431">
        <ele>37.6</ele>
        <time>2019-12-22T07:00:06Z</time>
      </trkpt>
      <trkpt lat="58.576459550712" lon="15.900193061716">
        <ele>37.2</ele>
        <time>2019-12-22T07:00:13Z</time>
      </trkpt>
      <trkpt lat="58.576539933133" lon="15.899883937244">
        <ele>36.8</ele>
        <time>2019-12-22T07:00:20Z</time>
      </trkpt>
      <trkpt lat="58.576632720766" lon="15.899571208555">
        <ele>36.6</ele>
        <time>2019-12-22T07:00:28Z</time>
      </trkpt>
      <trkpt lat="58.576728022969" lon="15.899233753261">
        <ele>37</ele>
        <time>2019-12-22T07:00:36Z</time>
      </trkpt>
      <trkpt lat="58.57680169987" lon="15.898878109244">
        <ele>36.8</ele>
        <time>2019-12-22T07:00:44Z</time>
      </trkpt>
      <trkpt lat="58.576895744788" lon="15.898568481858">
        <ele>36.8</ele>
        <time>2019-12-22T07:00:52Z</time>
      </trkpt>
      <trkpt lat="58.576962967626" lon="15.89827327134">
        <ele>36.2</ele>
        <time>2019-12-22T07:00:59Z</time>
      </trkpt>
      <trkpt lat="58.577077212923" lon="15.897982754686">
        <ele>36.4</ele>
        <time>2019-12-22T07:01:06Z</time>
      </trkpt>
      <trkpt lat="58.577170587289" lon="15.897643455374">
        <ele>36.2</ele>
        <time>2019-12-22T07:01:14Z</time>
      </trkpt>
      <trkpt lat="58.577260022162" lon="15.897314214342">
        <ele>36.4</ele>
        <time>2019-12-22T07:01:22Z</time>
      </trkpt>
      <trkpt lat="58.577354486175" lon="15.897008191173">
        <ele>36.2</ele>
        <time>2019-12-22T07:01:29Z</time>
      </trkpt>
      <trkpt lat="58.577453057319" lon="15.896719602356">
        <ele>36.2</ele>
        <time>2019-12-22T07:01:36Z</time>
      </trkpt>
      <trkpt lat="58.577533775016" lon="15.896399413776">
        <ele>35.8</ele>
        <time>2019-12-22T07:01:43Z</time>
      </trkpt>
      <trkpt lat="58.577614576532" lon="15.896081236852">
        <ele>36.6</ele>
        <time>2019-12-22T07:01:51Z</time>
      </trkpt>
      <trkpt lat="58.577644583734" lon="15.89586179871">
        <ele>37.4</ele>
        <time>2019-12-22T07:01:56Z</time>
      </trkpt>
      <trkpt lat="58.577651708349" lon="15.895596176299">
        <ele>38.6</ele>
        <time>2019-12-22T07:02:02Z</time>
      </trkpt>
      <trkpt lat="58.577663526828" lon="15.895445972651">
        <ele>39.6</ele>
        <time>2019-12-22T07:02:06Z</time>
      </trkpt>
      <trkpt lat="58.577661431353" lon="15.895282944696">
        <ele>40.8</ele>
        <time>2019-12-22T07:02:10Z</time>
      </trkpt>
      <trkpt lat="58.577694036944" lon="15.894939370615">
        <ele>41.6</ele>
        <time>2019-12-22T07:02:18Z</time>
      </trkpt>
      <trkpt lat="58.577704179043" lon="15.894847756448">
        <ele>41.8</ele>
        <time>2019-12-22T07:02:20Z</time>
      </trkpt>
      <trkpt lat="58.577749525122" lon="15.894475180993">
        <ele>42</ele>
        <time>2019-12-22T07:02:28Z</time>
      </trkpt>
      <trkpt lat="58.577809120431" lon="15.894148454531">
        <ele>41.8</ele>
        <time>2019-12-22T07:02:35Z</time>
      </trkpt>
      <trkpt lat="58.577873409604" lon="15.893818123852">
        <ele>41.4</ele>
        <time>2019-12-22T07:02:42Z</time>
      </trkpt>
      <trkpt lat="58.577945493944" lon="15.893485949155">
        <ele>41.8</ele>
        <time>2019-12-22T07:02:50Z</time>
      </trkpt>
      <trkpt lat="58.578021936872" lon="15.893133406441">
        <ele>41.8</ele>
        <time>2019-12-22T07:02:58Z</time>
      </trkpt>
      <trkpt lat="58.578099385628" lon="15.892807769626">
        <ele>40.8</ele>
        <time>2019-12-22T07:03:06Z</time>
      </trkpt>
      <trkpt lat="58.578134673427" lon="15.892510463633">
        <ele>39.6</ele>
        <time>2019-12-22T07:03:12Z</time>
      </trkpt>
      <trkpt lat="58.578149174114" lon="15.892368138971">
        <ele>38.4</ele>
        <time>2019-12-22T07:03:15Z</time>
      </trkpt>
      <trkpt lat="58.578171805244" lon="15.892057673395">
        <ele>37</ele>
        <time>2019-12-22T07:03:21Z</time>
      </trkpt>
      <trkpt lat="58.578177756393" lon="15.891889867757">
        <ele>35.6</ele>
        <time>2019-12-22T07:03:24Z</time>
      </trkpt>
      <trkpt lat="58.578195023107" lon="15.891575043593">
        <ele>34.4</ele>
        <time>2019-12-22T07:03:30Z</time>
      </trkpt>
      <trkpt lat="58.578198543505" lon="15.891212945513">
        <ele>34.2</ele>
        <time>2019-12-22T07:03:37Z</time>
      </trkpt>
      <trkpt lat="58.578212792735" lon="15.890863504102">
        <ele>34.2</ele>
        <time>2019-12-22T07:03:44Z</time>
      </trkpt>
      <trkpt lat="58.578282697781" lon="15.890556223648">
        <ele>35.4</ele>
        <time>2019-12-22T07:03:52Z</time>
      </trkpt>
      <trkpt lat="58.578371462102" lon="15.890341982284">
        <ele>36.6</ele>
        <time>2019-12-22T07:03:58Z</time>
      </trkpt>
      <trkpt lat="58.57849065272" lon="15.890195466672">
        <ele>37.6</ele>
        <time>2019-12-22T07:04:04Z</time>
      </trkpt>
      <trkpt lat="58.578671785579" lon="15.890051297992">
        <ele>38.4</ele>
        <time>2019-12-22T07:04:12Z</time>
      </trkpt>
      <trkpt lat="58.578743031729" lon="15.889980051842">
        <ele>38.8</ele>
        <time>2019-12-22T07:04:15Z</time>
      </trkpt>
      <trkpt lat="58.578925338054" lon="15.889829764375">
        <ele>39.8</ele>
        <time>2019-12-22T07:04:23Z</time>
      </trkpt>
      <trkpt lat="58.578969594486" lon="15.889803277571">
        <ele>40</ele>
        <time>2019-12-22T07:04:25Z</time>
      </trkpt>
      <trkpt lat="58.579122061247" lon="15.889710825214">
        <ele>41</ele>
        <time>2019-12-22T07:04:32Z</time>
      </trkpt>
      <trkpt lat="58.579303613201" lon="15.889619043409">
        <ele>41.6</ele>
        <time>2019-12-22T07:04:40Z</time>
      </trkpt>
      <trkpt lat="58.579483321137" lon="15.889545450327">
        <ele>41.8</ele>
        <time>2019-12-22T07:04:48Z</time>
      </trkpt>
      <trkpt lat="58.579678200312" lon="15.889503708465">
        <ele>42</ele>
        <time>2019-12-22T07:04:56Z</time>
      </trkpt>
      <trkpt lat="58.57987366622" lon="15.889473785082">
        <ele>41.8</ele>
        <time>2019-12-22T07:05:04Z</time>
      </trkpt>
      <trkpt lat="58.580076340562" lon="15.889476551109">
        <ele>41.8</ele>
        <time>2019-12-22T07:05:12Z</time>
      </trkpt>
      <trkpt lat="58.580150017463" lon="15.889478227489">
        <ele>42.2</ele>
        <time>2019-12-22T07:05:15Z</time>
      </trkpt>
      <trkpt lat="58.580348249398" lon="15.889450231943">
        <ele>42.6</ele>
        <time>2019-12-22T07:05:24Z</time>
      </trkpt>
      <trkpt lat="58.580493759182" lon="15.889330873687">
        <ele>43.2</ele>
        <time>2019-12-22T07:05:31Z</time>
      </trkpt>
      <trkpt lat="58.580667599788" lon="15.88914705862">
        <ele>44.2</ele>
        <time>2019-12-22T07:05:39Z</time>
      </trkpt>
      <trkpt lat="58.580692410212" lon="15.889130881553">
        <ele>44.4</ele>
        <time>2019-12-22T07:05:40Z</time>
      </trkpt>
      <trkpt lat="58.580855521986" lon="15.888970368168">
        <ele>44.8</ele>
        <time>2019-12-22T07:05:47Z</time>
      </trkpt>
      <trkpt lat="58.581014107534" lon="15.888757719365">
        <ele>43.8</ele>
        <time>2019-12-22T07:05:55Z</time>
      </trkpt>
      <trkpt lat="58.581157857119" lon="15.888548004227">
        <ele>43.4</ele>
        <time>2019-12-22T07:06:02Z</time>
      </trkpt>
      <trkpt lat="58.581323567282" lon="15.888304090937">
        <ele>42.8</ele>
        <time>2019-12-22T07:06:10Z</time>
      </trkpt>
      <trkpt lat="58.581466813953" lon="15.888087251184">
        <ele>42.4</ele>
        <time>2019-12-22T07:06:16Z</time>
      </trkpt>
      <trkpt lat="58.581488606893" lon="15.888054729412">
        <ele>42.2</ele>
        <time>2019-12-22T07:06:17Z</time>
      </trkpt>
      <trkpt lat="58.581583909096" lon="15.887902933203">
        <ele>41.2</ele>
        <time>2019-12-22T07:06:22Z</time>
      </trkpt>
      <trkpt lat="58.581608803339" lon="15.887564052986">
        <ele>40</ele>
        <time>2019-12-22T07:06:29Z</time>
      </trkpt>
      <trkpt lat="58.581461700994" lon="15.887364899042">
        <ele>39.6</ele>
        <time>2019-12-22T07:06:36Z</time>
      </trkpt>
      <trkpt lat="58.581290794053" lon="15.887245708424">
        <ele>39.4</ele>
        <time>2019-12-22T07:06:43Z</time>
      </trkpt>
      <trkpt lat="58.581237904264" lon="15.887203966562">
        <ele>39.2</ele>
        <time>2019-12-22T07:06:45Z</time>
      </trkpt>
      <trkpt lat="58.581053167188" lon="15.887049488145">
        <ele>39</ele>
        <time>2019-12-22T07:06:52Z</time>
      </trkpt>
      <trkpt lat="58.581026764203" lon="15.887023252798">
        <ele>38.8</ele>
        <time>2019-12-22T07:06:53Z</time>
      </trkpt>
      <trkpt lat="58.580858204194" lon="15.886843544862">
        <ele>38.6</ele>
        <time>2019-12-22T07:07:00Z</time>
      </trkpt>
      <trkpt lat="58.58068503414" lon="15.886710105014">
        <ele>38.4</ele>
        <time>2019-12-22T07:07:07Z</time>
      </trkpt>
      <trkpt lat="58.580501135254" lon="15.886614551354">
        <ele>38.6</ele>
        <time>2019-12-22T07:07:14Z</time>
      </trkpt>
      <trkpt lat="58.580312291047" lon="15.886564008497">
        <ele>38.2</ele>
        <time>2019-12-22T07:07:20Z</time>
      </trkpt>
      <trkpt lat="58.580123195383" lon="15.886451523399">
        <ele>38.2</ele>
        <time>2019-12-22T07:07:29Z</time>
      </trkpt>
      <trkpt lat="58.579949606234" lon="15.886348761305">
        <ele>38.4</ele>
        <time>2019-12-22T07:07:39Z</time>
      </trkpt>
      <trkpt lat="58.579766796995" lon="15.886311964764">
        <ele>39</ele>
        <time>2019-12-22T07:07:47Z</time>
      </trkpt>
      <trkpt lat="58.579571750182" lon="15.886283466304">
        <ele>39.4</ele>
        <time>2019-12-22T07:07:56Z</time>
      </trkpt>
      <trkpt lat="58.579379469396" lon="15.886314563153">
        <ele>39.4</ele>
        <time>2019-12-22T07:08:04Z</time>
      </trkpt>
      <trkpt lat="58.57919808508" lon="15.886416654695">
        <ele>39.8</ele>
        <time>2019-12-22T07:08:11Z</time>
      </trkpt>
      <trkpt lat="58.579176208321" lon="15.886420258912">
        <ele>39.8</ele>
        <time>2019-12-22T07:08:12Z</time>
      </trkpt>
      <trkpt lat="58.579003625" lon="15.886526457585">
        <ele>40</ele>
        <time>2019-12-22T07:08:19Z</time>
      </trkpt>
      <trkpt lat="58.578812685318" lon="15.886650677343">
        <ele>39.6</ele>
        <time>2019-12-22T07:08:27Z</time>
      </trkpt>
      <trkpt lat="58.578623757292" lon="15.886724940977">
        <ele>39.6</ele>
        <time>2019-12-22T07:08:34Z</time>
      </trkpt>
      <trkpt lat="58.578444971365" lon="15.886833318944">
        <ele>39.8</ele>
        <time>2019-12-22T07:08:41Z</time>
      </trkpt>
      <trkpt lat="58.578258809366" lon="15.886949240621">
        <ele>39.6</ele>
        <time>2019-12-22T07:08:49Z</time>
      </trkpt>
      <trkpt lat="58.578072647367" lon="15.887081590822">
        <ele>39.4</ele>
        <time>2019-12-22T07:08:57Z</time>
      </trkpt>
      <trkpt lat="58.577917498398" lon="15.887175719559">
        <ele>38.8</ele>
        <time>2019-12-22T07:09:04Z</time>
      </trkpt>
      <trkpt lat="58.577730246752" lon="15.887268842468">
        <ele>38.6</ele>
        <time>2019-12-22T07:09:12Z</time>
      </trkpt>
      <trkpt lat="58.57753008698" lon="15.887368754716">
        <ele>38.4</ele>
        <time>2019-12-22T07:09:20Z</time>
      </trkpt>
      <trkpt lat="58.577330430122" lon="15.88740362342">
        <ele>38.6</ele>
        <time>2019-12-22T07:09:28Z</time>
      </trkpt>
      <trkpt lat="58.577132030549" lon="15.887414352252">
        <ele>38.8</ele>
        <time>2019-12-22T07:09:36Z</time>
      </trkpt>
      <trkpt lat="58.57694754493" lon="15.88742541636">
        <ele>38.6</ele>
        <time>2019-12-22T07:09:43Z</time>
      </trkpt>
      <trkpt lat="58.576758533085" lon="15.887407982008">
        <ele>38.8</ele>
        <time>2019-12-22T07:09:50Z</time>
      </trkpt>
      <trkpt lat="58.576579747158" lon="15.887355595133">
        <ele>39.2</ele>
        <time>2019-12-22T07:09:57Z</time>
      </trkpt>
      <trkpt lat="58.576381347585" lon="15.887278984567">
        <ele>39.4</ele>
        <time>2019-12-22T07:10:05Z</time>
      </trkpt>
      <trkpt lat="58.576207674617" lon="15.887176390111">
        <ele>39.8</ele>
        <time>2019-12-22T07:10:13Z</time>
      </trkpt>
      <trkpt lat="58.576022015532" lon="15.887052086534">
        <ele>39.8</ele>
        <time>2019-12-22T07:10:21Z</time>
      </trkpt>
      <trkpt lat="58.575897209041" lon="15.886788559598">
        <ele>40.6</ele>
        <time>2019-12-22T07:10:29Z</time>
      </trkpt>
      <trkpt lat="58.575915900678" lon="15.886713038679">
        <ele>40.8</ele>
        <time>2019-12-22T07:10:31Z</time>
      </trkpt>
      <trkpt lat="58.575934592315" lon="15.886692335386">
        <ele>41</ele>
        <time>2019-12-22T07:10:32Z</time>
      </trkpt>
      <trkpt lat="58.576055207856" lon="15.886569875827">
        <ele>42</ele>
        <time>2019-12-22T07:10:38Z</time>
      </trkpt>
      <trkpt lat="58.57624178895" lon="15.886489325768">
        <ele>42.8</ele>
        <time>2019-12-22T07:10:46Z</time>
      </trkpt>
      <trkpt lat="58.576280094233" lon="15.886459989118">
        <ele>43.2</ele>
        <time>2019-12-22T07:10:48Z</time>
      </trkpt>
      <trkpt lat="58.576404481629" lon="15.886352784617">
        <ele>44.4</ele>
        <time>2019-12-22T07:10:55Z</time>
      </trkpt>
      <trkpt lat="58.576513027234" lon="15.886273659481">
        <ele>45.4</ele>
        <time>2019-12-22T07:11:00Z</time>
      </trkpt>
      <trkpt lat="58.576679407949" lon="15.886063273791">
        <ele>46.4</ele>
        <time>2019-12-22T07:11:08Z</time>
      </trkpt>
      <trkpt lat="58.576841178619" lon="15.885891863936">
        <ele>47.4</ele>
        <time>2019-12-22T07:11:16Z</time>
      </trkpt>
      <trkpt lat="58.576861881912" lon="15.885879626362">
        <ele>47.6</ele>
        <time>2019-12-22T07:11:17Z</time>
      </trkpt>
      <trkpt lat="58.577053073051" lon="15.885769069101">
        <ele>48</ele>
        <time>2019-12-22T07:11:25Z</time>
      </trkpt>
      <trkpt lat="58.577232780987" lon="15.885728500705">
        <ele>48.4</ele>
        <time>2019-12-22T07:11:33Z</time>
      </trkpt>
      <trkpt lat="58.57731383396" lon="15.885729925628">
        <ele>48.6</ele>
        <time>2019-12-22T07:11:36Z</time>
      </trkpt>
      <trkpt lat="58.577514496646" lon="15.88572556704">
        <ele>48.6</ele>
        <time>2019-12-22T07:11:44Z</time>
      </trkpt>
      <trkpt lat="58.577693953125" lon="15.885691536526">
        <ele>48.6</ele>
        <time>2019-12-22T07:11:51Z</time>
      </trkpt>
      <trkpt lat="58.577873577242" lon="15.885676365287">
        <ele>48.2</ele>
        <time>2019-12-22T07:11:59Z</time>
      </trkpt>
      <trkpt lat="58.577924539194" lon="15.885660272039">
        <ele>47.6</ele>
        <time>2019-12-22T07:12:01Z</time>
      </trkpt>
      <trkpt lat="58.578091841918" lon="15.885634874882">
        <ele>46.6</ele>
        <time>2019-12-22T07:12:07Z</time>
      </trkpt>
      <trkpt lat="58.578240536824" lon="15.885628839914">
        <ele>45.4</ele>
        <time>2019-12-22T07:12:12Z</time>
      </trkpt>
      <trkpt lat="58.57835486594" lon="15.88557385465">
        <ele>44.2</ele>
        <time>2019-12-22T07:12:16Z</time>
      </trkpt>
      <trkpt lat="58.578524599415" lon="15.885409904686">
        <ele>44.6</ele>
        <time>2019-12-22T07:12:24Z</time>
      </trkpt>
      <trkpt lat="58.578582266887" lon="15.88532323584">
        <ele>45.2</ele>
        <time>2019-12-22T07:12:27Z</time>
      </trkpt>
      <trkpt lat="58.578689974302" lon="15.885051327004">
        <ele>46.2</ele>
        <time>2019-12-22T07:12:35Z</time>
      </trkpt>
      <trkpt lat="58.578748479964" lon="15.884844545531">
        <ele>47.6</ele>
        <time>2019-12-22T07:12:41Z</time>
      </trkpt>
      <trkpt lat="58.578791898206" lon="15.884476161026">
        <ele>48</ele>
        <time>2019-12-22T07:12:49Z</time>
      </trkpt>
      <trkpt lat="58.578879656699" lon="15.884169215848">
        <ele>48</ele>
        <time>2019-12-22T07:12:56Z</time>
      </trkpt>
      <trkpt lat="58.57896003912" lon="15.883833353115">
        <ele>48</ele>
        <time>2019-12-22T07:13:03Z</time>
      </trkpt>
      <trkpt lat="58.579083923602" lon="15.883585584151">
        <ele>47.8</ele>
        <time>2019-12-22T07:13:10Z</time>
      </trkpt>
      <trkpt lat="58.579242257693" lon="15.883347454372">
        <ele>47.4</ele>
        <time>2019-12-22T07:13:18Z</time>
      </trkpt>
      <trkpt lat="58.579413919005" lon="15.883160286545">
        <ele>47.8</ele>
        <time>2019-12-22T07:13:26Z</time>
      </trkpt>
      <trkpt lat="58.579525398275" lon="15.883062134496">
        <ele>48.4</ele>
        <time>2019-12-22T07:13:31Z</time>
      </trkpt>
      <trkpt lat="58.5795819761" lon="15.883000276074">
        <ele>48.6</ele>
        <time>2019-12-22T07:13:34Z</time>
      </trkpt>
      <trkpt lat="58.579731844472" lon="15.882797937008">
        <ele>49</ele>
        <time>2019-12-22T07:13:43Z</time>
      </trkpt>
      <trkpt lat="58.579810550513" lon="15.882687295928">
        <ele>49.6</ele>
        <time>2019-12-22T07:13:48Z</time>
      </trkpt>
      <trkpt lat="58.579971902088" lon="15.882495937151">
        <ele>50</ele>
        <time>2019-12-22T07:13:56Z</time>
      </trkpt>
      <trkpt lat="58.580134175672" lon="15.882337267784">
        <ele>50.2</ele>
        <time>2019-12-22T07:14:03Z</time>
      </trkpt>
      <trkpt lat="58.580340035136" lon="15.882270380222">
        <ele>49</ele>
        <time>2019-12-22T07:14:11Z</time>
      </trkpt>
      <trkpt lat="58.580516306493" lon="15.882191674181">
        <ele>49.2</ele>
        <time>2019-12-22T07:14:18Z</time>
      </trkpt>
      <trkpt lat="58.580700289198" lon="15.882029819692">
        <ele>49</ele>
        <time>2019-12-22T07:14:25Z</time>
      </trkpt>
      <trkpt lat="58.580827023526" lon="15.881901995717">
        <ele>48.6</ele>
        <time>2019-12-22T07:14:30Z</time>
      </trkpt>
      <trkpt lat="58.580885864464" lon="15.881794372121">
        <ele>47.2</ele>
        <time>2019-12-22T07:14:33Z</time>
      </trkpt>
      <trkpt lat="58.580966749799" lon="15.881692532036">
        <ele>46.2</ele>
        <time>2019-12-22T07:14:37Z</time>
      </trkpt>
      <trkpt lat="58.581083509666" lon="15.881537047791">
        <ele>47.2</ele>
        <time>2019-12-22T07:14:45Z</time>
      </trkpt>
      <trkpt lat="58.581128604288" lon="15.88145331261">
        <ele>48.4</ele>
        <time>2019-12-22T07:14:49Z</time>
      </trkpt>
      <trkpt lat="58.58114855321" lon="15.881404194676">
        <ele>49.4</ele>
        <time>2019-12-22T07:14:51Z</time>
      </trkpt>
      <trkpt lat="58.581301690523" lon="15.88122700131">
        <ele>50.4</ele>
        <time>2019-12-22T07:14:58Z</time>
      </trkpt>
      <trkpt lat="58.58144611066" lon="15.880966910953">
        <ele>50.2</ele>
        <time>2019-12-22T07:15:06Z</time>
      </trkpt>
      <trkpt lat="58.58152573871" lon="15.880787622112">
        <ele>51.6</ele>
        <time>2019-12-22T07:15:12Z</time>
      </trkpt>
      <trkpt lat="58.58160117581" lon="15.880677651584">
        <ele>52.6</ele>
        <time>2019-12-22T07:15:16Z</time>
      </trkpt>
      <trkpt lat="58.581759258444" lon="15.880431223724">
        <ele>52.8</ele>
        <time>2019-12-22T07:15:24Z</time>
      </trkpt>
      <trkpt lat="58.581907450436" lon="15.880181024009">
        <ele>52.2</ele>
        <time>2019-12-22T07:15:32Z</time>
      </trkpt>
      <trkpt lat="58.582065700708" lon="15.879999807331">
        <ele>51.8</ele>
        <time>2019-12-22T07:15:39Z</time>
      </trkpt>
      <trkpt lat="58.582219843849" lon="15.879799144645">
        <ele>51.6</ele>
        <time>2019-12-22T07:15:46Z</time>
      </trkpt>
      <trkpt lat="58.582238703124" lon="15.879775423868">
        <ele>51.6</ele>
        <time>2019-12-22T07:15:47Z</time>
      </trkpt>
      <trkpt lat="58.58235889957" lon="15.879552213871">
        <ele>52.6</ele>
        <time>2019-12-22T07:15:55Z</time>
      </trkpt>
      <trkpt lat="58.582486723545" lon="15.879307378572">
        <ele>53.8</ele>
        <time>2019-12-22T07:16:03Z</time>
      </trkpt>
      <trkpt lat="58.582552689098" lon="15.878954752039">
        <ele>53.6</ele>
        <time>2019-12-22T07:16:11Z</time>
      </trkpt>
      <trkpt lat="58.582550928899" lon="15.878669515982">
        <ele>52.6</ele>
        <time>2019-12-22T07:16:17Z</time>
      </trkpt>
      <trkpt lat="58.582562495921" lon="15.878480839413">
        <ele>51.4</ele>
        <time>2019-12-22T07:16:21Z</time>
      </trkpt>
      <trkpt lat="58.582552772917" lon="15.878186718542">
        <ele>50.2</ele>
        <time>2019-12-22T07:16:27Z</time>
      </trkpt>
      <trkpt lat="58.582529722692" lon="15.877898465001">
        <ele>49</ele>
        <time>2019-12-22T07:16:33Z</time>
      </trkpt>
      <trkpt lat="58.582469875926" lon="15.877618844817">
        <ele>47.6</ele>
        <time>2019-12-22T07:16:38Z</time>
      </trkpt>
      <trkpt lat="58.582447244796" lon="15.877429413877">
        <ele>46.6</ele>
        <time>2019-12-22T07:16:42Z</time>
      </trkpt>
      <trkpt lat="58.582415645033" lon="15.877042505373">
        <ele>47.6</ele>
        <time>2019-12-22T07:16:51Z</time>
      </trkpt>
      <trkpt lat="58.582415477395" lon="15.876991459602">
        <ele>47.8</ele>
        <time>2019-12-22T07:16:52Z</time>
      </trkpt>
      <trkpt lat="58.582412627549" lon="15.876692644867">
        <ele>49</ele>
        <time>2019-12-22T07:16:58Z</time>
      </trkpt>
      <trkpt lat="58.582452357755" lon="15.87635627922">
        <ele>48.2</ele>
        <time>2019-12-22T07:17:05Z</time>
      </trkpt>
      <trkpt lat="58.582483119328" lon="15.876236669507">
        <ele>48</ele>
        <time>2019-12-22T07:17:08Z</time>
      </trkpt>
      <trkpt lat="58.582610105113" lon="15.875961324092">
        <ele>49.2</ele>
        <time>2019-12-22T07:17:17Z</time>
      </trkpt>
      <trkpt lat="58.5827419524" lon="15.8756957855">
        <ele>49.6</ele>
        <time>2019-12-22T07:17:25Z</time>
      </trkpt>
      <trkpt lat="58.582847983435" lon="15.875391773987">
        <ele>47.8</ele>
        <time>2019-12-22T07:17:33Z</time>
      </trkpt>
      <trkpt lat="58.58288109194" lon="15.875260429614">
        <ele>46.4</ele>
        <time>2019-12-22T07:17:36Z</time>
      </trkpt>
      <trkpt lat="58.582914703359" lon="15.875178035537">
        <ele>45.4</ele>
        <time>2019-12-22T07:17:38Z</time>
      </trkpt>
      <trkpt lat="58.582947476588" lon="15.875094551813">
        <ele>44</ele>
        <time>2019-12-22T07:17:40Z</time>
      </trkpt>
      <trkpt lat="58.582980752731" lon="15.875013917935">
        <ele>43</ele>
        <time>2019-12-22T07:17:42Z</time>
      </trkpt>
      <trkpt lat="58.583019980023" lon="15.874885842503">
        <ele>41.8</ele>
        <time>2019-12-22T07:17:45Z</time>
      </trkpt>
      <trkpt lat="58.583082006083" lon="15.874632625304">
        <ele>40.4</ele>
        <time>2019-12-22T07:17:50Z</time>
      </trkpt>
      <trkpt lat="58.583100781539" lon="15.874536736368">
        <ele>39</ele>
        <time>2019-12-22T07:17:52Z</time>
      </trkpt>
      <trkpt lat="58.583145708523" lon="15.874390975127">
        <ele>38</ele>
        <time>2019-12-22T07:17:55Z</time>
      </trkpt>
      <trkpt lat="58.583195832285" lon="15.874234736511">
        <ele>36.8</ele>
        <time>2019-12-22T07:17:59Z</time>
      </trkpt>
      <trkpt lat="58.583268000444" lon="15.873973472688">
        <ele>35.8</ele>
        <time>2019-12-22T07:18:05Z</time>
      </trkpt>
      <trkpt lat="58.583305802813" lon="15.873662168922">
        <ele>34.6</ele>
        <time>2019-12-22T07:18:13Z</time>
      </trkpt>
      <trkpt lat="58.583250314635" lon="15.873312392235">
        <ele>33.6</ele>
        <time>2019-12-22T07:18:21Z</time>
      </trkpt>
      <trkpt lat="58.583178984666" lon="15.87294568411">
        <ele>34</ele>
        <time>2019-12-22T07:18:29Z</time>
      </trkpt>
      <trkpt lat="58.583064404093" lon="15.872642007873">
        <ele>34.2</ele>
        <time>2019-12-22T07:18:37Z</time>
      </trkpt>
      <trkpt lat="58.582896849912" lon="15.872454756227">
        <ele>35.6</ele>
        <time>2019-12-22T07:18:46Z</time>
      </trkpt>
      <trkpt lat="58.582776569647" lon="15.872415528935">
        <ele>36.8</ele>
        <time>2019-12-22T07:18:53Z</time>
      </trkpt>
      <trkpt lat="58.582576661332" lon="15.872517285201">
        <ele>38</ele>
        <time>2019-12-22T07:19:04Z</time>
      </trkpt>
      <trkpt lat="58.582526956665" lon="15.872662543528">
        <ele>39</ele>
        <time>2019-12-22T07:19:08Z</time>
      </trkpt>
      <trkpt lat="58.582478593102" lon="15.872802018344">
        <ele>40.2</ele>
        <time>2019-12-22T07:19:13Z</time>
      </trkpt>
      <trkpt lat="58.582415561214" lon="15.872966471222">
        <ele>41</ele>
        <time>2019-12-22T07:19:19Z</time>
      </trkpt>
      <trkpt lat="58.58241170554" lon="15.87299262275">
        <ele>41.4</ele>
        <time>2019-12-22T07:19:20Z</time>
      </trkpt>
      <trkpt lat="58.58239242717" lon="15.873088763143">
        <ele>42.4</ele>
        <time>2019-12-22T07:19:24Z</time>
      </trkpt>
      <trkpt lat="58.582361833235" lon="15.873207115571">
        <ele>43.4</ele>
        <time>2019-12-22T07:19:28Z</time>
      </trkpt>
      <trkpt lat="58.582330820205" lon="15.873328234026">
        <ele>44.6</ele>
        <time>2019-12-22T07:19:33Z</time>
      </trkpt>
      <trkpt lat="58.582288826886" lon="15.873489585601">
        <ele>45.8</ele>
        <time>2019-12-22T07:19:38Z</time>
      </trkpt>
      <trkpt lat="58.582238535486" lon="15.873687146984">
        <ele>47.2</ele>
        <time>2019-12-22T07:19:44Z</time>
      </trkpt>
      <trkpt lat="58.58217617415" lon="15.873897113579">
        <ele>48.4</ele>
        <time>2019-12-22T07:19:50Z</time>
      </trkpt>
      <trkpt lat="58.582059833378" lon="15.874176063211">
        <ele>48.6</ele>
        <time>2019-12-22T07:19:59Z</time>
      </trkpt>
      <trkpt lat="58.581984815373" lon="15.874284441178">
        <ele>49.4</ele>
        <time>2019-12-22T07:20:04Z</time>
      </trkpt>
      <trkpt lat="58.581924633331" lon="15.874358453355">
        <ele>50.6</ele>
        <time>2019-12-22T07:20:08Z</time>
      </trkpt>
      <trkpt lat="58.581863110185" lon="15.874401787778">
        <ele>51.2</ele>
        <time>2019-12-22T07:20:11Z</time>
      </trkpt>
      <trkpt lat="58.581823966712" lon="15.874426346745">
        <ele>51.8</ele>
        <time>2019-12-22T07:20:13Z</time>
      </trkpt>
      <trkpt lat="58.581730676165" lon="15.874452330635">
        <ele>52.8</ele>
        <time>2019-12-22T07:20:18Z</time>
      </trkpt>
      <trkpt lat="58.581593213005" lon="15.874444954563">
        <ele>54</ele>
        <time>2019-12-22T07:20:24Z</time>
      </trkpt>
      <trkpt lat="58.581500341553" lon="15.874490049185">
        <ele>55.2</ele>
        <time>2019-12-22T07:20:29Z</time>
      </trkpt>
      <trkpt lat="58.581445775384" lon="15.874540843499">
        <ele>56.6</ele>
        <time>2019-12-22T07:20:32Z</time>
      </trkpt>
      <trkpt lat="58.581282160696" lon="15.874609323622">
        <ele>57.2</ele>
        <time>2019-12-22T07:20:40Z</time>
      </trkpt>
      <trkpt lat="58.581225079957" lon="15.874593900926">
        <ele>57.6</ele>
        <time>2019-12-22T07:20:43Z</time>
      </trkpt>
      <trkpt lat="58.581034056456" lon="15.874533132151">
        <ele>57.4</ele>
        <time>2019-12-22T07:20:51Z</time>
      </trkpt>
      <trkpt lat="58.580874213623" lon="15.874366248522">
        <ele>57.6</ele>
        <time>2019-12-22T07:20:59Z</time>
      </trkpt>
      <trkpt lat="58.580859126203" lon="15.874359543002">
        <ele>57.6</ele>
        <time>2019-12-22T07:21:00Z</time>
      </trkpt>
      <trkpt lat="58.580665671951" lon="15.874471609005">
        <ele>57.4</ele>
        <time>2019-12-22T07:21:09Z</time>
      </trkpt>
      <trkpt lat="58.580492753354" lon="15.874505304243">
        <ele>56</ele>
        <time>2019-12-22T07:21:16Z</time>
      </trkpt>
      <trkpt lat="58.580373981831" lon="15.874501783845">
        <ele>54.8</ele>
        <time>2019-12-22T07:21:20Z</time>
      </trkpt>
      <trkpt lat="58.580268286072" lon="15.874504046958">
        <ele>53.8</ele>
        <time>2019-12-22T07:21:24Z</time>
      </trkpt>
      <trkpt lat="58.580071814336" lon="15.874557355842">
        <ele>52.8</ele>
        <time>2019-12-22T07:21:33Z</time>
      </trkpt>
      <trkpt lat="58.580025713886" lon="15.874595325849">
        <ele>52.6</ele>
        <time>2019-12-22T07:21:35Z</time>
      </trkpt>
      <trkpt lat="58.57988288631" lon="15.874871593273">
        <ele>51.6</ele>
        <time>2019-12-22T07:21:44Z</time>
      </trkpt>
      <trkpt lat="58.579803761174" lon="15.875194966975">
        <ele>51.8</ele>
        <time>2019-12-22T07:21:51Z</time>
      </trkpt>
      <trkpt lat="58.579751709575" lon="15.875535188296">
        <ele>52.2</ele>
        <time>2019-12-22T07:21:58Z</time>
      </trkpt>
      <trkpt lat="58.579733185576" lon="15.87565639057">
        <ele>52.8</ele>
        <time>2019-12-22T07:22:01Z</time>
      </trkpt>
      <trkpt lat="58.579640817038" lon="15.875951181993">
        <ele>52.8</ele>
        <time>2019-12-22T07:22:09Z</time>
      </trkpt>
      <trkpt lat="58.579476196522" lon="15.876090153895">
        <ele>52.8</ele>
        <time>2019-12-22T07:22:16Z</time>
      </trkpt>
      <trkpt lat="58.579310570178" lon="15.876255947877">
        <ele>53</ele>
        <time>2019-12-22T07:22:23Z</time>
      </trkpt>
      <trkpt lat="58.579138322133" lon="15.876381592558">
        <ele>52.4</ele>
        <time>2019-12-22T07:22:30Z</time>
      </trkpt>
      <trkpt lat="58.578963727156" lon="15.876271538211">
        <ele>52.2</ele>
        <time>2019-12-22T07:22:37Z</time>
      </trkpt>
      <trkpt lat="58.578884685839" lon="15.876224515752">
        <ele>51.6</ele>
        <time>2019-12-22T07:22:40Z</time>
      </trkpt>
      <trkpt lat="58.578691734501" lon="15.876116389242">
        <ele>51.2</ele>
        <time>2019-12-22T07:22:47Z</time>
      </trkpt>
      <trkpt lat="58.578609172786" lon="15.876041287418">
        <ele>50.6</ele>
        <time>2019-12-22T07:22:50Z</time>
      </trkpt>
      <trkpt lat="58.578489227797" lon="15.875922599714">
        <ele>49.4</ele>
        <time>2019-12-22T07:22:55Z</time>
      </trkpt>
      <trkpt lat="58.578307675843" lon="15.875862501491">
        <ele>48.8</ele>
        <time>2019-12-22T07:23:03Z</time>
      </trkpt>
      <trkpt lat="58.578191754166" lon="15.875776838473">
        <ele>49</ele>
        <time>2019-12-22T07:23:09Z</time>
      </trkpt>
      <trkpt lat="58.578126794441" lon="15.875745322529">
        <ele>48.8</ele>
        <time>2019-12-22T07:23:12Z</time>
      </trkpt>
      <trkpt lat="58.577932250542" lon="15.875621689504">
        <ele>48.6</ele>
        <time>2019-12-22T07:23:21Z</time>
      </trkpt>
      <trkpt lat="58.57774214905" lon="15.875562345652">
        <ele>48.8</ele>
        <time>2019-12-22T07:23:28Z</time>
      </trkpt>
      <trkpt lat="58.577640225146" lon="15.875496966832">
        <ele>48.4</ele>
        <time>2019-12-22T07:23:32Z</time>
      </trkpt>
      <trkpt lat="58.577465713988" lon="15.87539571348">
        <ele>48.4</ele>
        <time>2019-12-22T07:23:39Z</time>
      </trkpt>
      <trkpt lat="58.57735993441" lon="15.875330586117">
        <ele>48.4</ele>
        <time>2019-12-22T07:23:44Z</time>
      </trkpt>
      <trkpt lat="58.577200007758" lon="15.875155236769">
        <ele>48.4</ele>
        <time>2019-12-22T07:23:52Z</time>
      </trkpt>
      <trkpt lat="58.577036141613" lon="15.875074099977">
        <ele>49.4</ele>
        <time>2019-12-22T07:23:59Z</time>
      </trkpt>
      <trkpt lat="58.576946539102" lon="15.875083990619">
        <ele>50.4</ele>
        <time>2019-12-22T07:24:03Z</time>
      </trkpt>
      <trkpt lat="58.576875292952" lon="15.875150039991">
        <ele>51.6</ele>
        <time>2019-12-22T07:24:07Z</time>
      </trkpt>
      <trkpt lat="58.576795078169" lon="15.875197984459">
        <ele>52.8</ele>
        <time>2019-12-22T07:24:11Z</time>
      </trkpt>
      <trkpt lat="58.576606569238" lon="15.875310637195">
        <ele>53.6</ele>
        <time>2019-12-22T07:24:20Z</time>
      </trkpt>
      <trkpt lat="58.57652928812" lon="15.875370735418">
        <ele>54</ele>
        <time>2019-12-22T07:24:24Z</time>
      </trkpt>
      <trkpt lat="58.576347484709" lon="15.875487243828">
        <ele>54.8</ele>
        <time>2019-12-22T07:24:32Z</time>
      </trkpt>
      <trkpt lat="58.576304317924" lon="15.875508366216">
        <ele>55.2</ele>
        <time>2019-12-22T07:24:34Z</time>
      </trkpt>
      <trkpt lat="58.576185462582" lon="15.875557735607">
        <ele>56.4</ele>
        <time>2019-12-22T07:24:39Z</time>
      </trkpt>
      <trkpt lat="58.576018914229" lon="15.875510042596">
        <ele>56.2</ele>
        <time>2019-12-22T07:24:47Z</time>
      </trkpt>
      <trkpt lat="58.575901735267" lon="15.875702910115">
        <ele>55.2</ele>
        <time>2019-12-22T07:24:54Z</time>
      </trkpt>
      <trkpt lat="58.57581934119" lon="15.875964760671">
        <ele>54.2</ele>
        <time>2019-12-22T07:25:01Z</time>
      </trkpt>
      <trkpt lat="58.575755722569" lon="15.876245889597">
        <ele>53.8</ele>
        <time>2019-12-22T07:25:08Z</time>
      </trkpt>
      <trkpt lat="58.575716662915" lon="15.87632358981">
        <ele>53</ele>
        <time>2019-12-22T07:25:10Z</time>
      </trkpt>
      <trkpt lat="58.575652792837" lon="15.876402882584">
        <ele>51.8</ele>
        <time>2019-12-22T07:25:13Z</time>
      </trkpt>
      <trkpt lat="58.575507702148" lon="15.876649897177">
        <ele>51</ele>
        <time>2019-12-22T07:25:20Z</time>
      </trkpt>
      <trkpt lat="58.575453303617" lon="15.876760789714">
        <ele>50.8</ele>
        <time>2019-12-22T07:25:23Z</time>
      </trkpt>
      <trkpt lat="58.575330508782" lon="15.87703102217">
        <ele>50.8</ele>
        <time>2019-12-22T07:25:30Z</time>
      </trkpt>
      <trkpt lat="58.575196063106" lon="15.877304020653">
        <ele>50.8</ele>
        <time>2019-12-22T07:25:37Z</time>
      </trkpt>
      <trkpt lat="58.575014930247" lon="15.87736462179">
        <ele>50.8</ele>
        <time>2019-12-22T07:25:44Z</time>
      </trkpt>
      <trkpt lat="58.574828432972" lon="15.877297482771">
        <ele>50.4</ele>
        <time>2019-12-22T07:25:51Z</time>
      </trkpt>
      <trkpt lat="58.574646629561" lon="15.877221123662">
        <ele>50.8</ele>
        <time>2019-12-22T07:25:59Z</time>
      </trkpt>
      <trkpt lat="58.574470525842" lon="15.877298572418">
        <ele>50.4</ele>
        <time>2019-12-22T07:26:07Z</time>
      </trkpt>
      <trkpt lat="58.574279167065" lon="15.877379122477">
        <ele>50.8</ele>
        <time>2019-12-22T07:26:15Z</time>
      </trkpt>
      <trkpt lat="58.574116390567" lon="15.877515831266">
        <ele>51.8</ele>
        <time>2019-12-22T07:26:23Z</time>
      </trkpt>
      <trkpt lat="58.574012790283" lon="15.877765611886">
        <ele>52.8</ele>
        <time>2019-12-22T07:26:29Z</time>
      </trkpt>
      <trkpt lat="58.573914722053" lon="15.878094098547">
        <ele>52.6</ele>
        <time>2019-12-22T07:26:36Z</time>
      </trkpt>
      <trkpt lat="58.573832914709" lon="15.878295096509">
        <ele>51.8</ele>
        <time>2019-12-22T07:26:41Z</time>
      </trkpt>
      <trkpt lat="58.573658822646" lon="15.878436834438">
        <ele>51.8</ele>
        <time>2019-12-22T07:26:49Z</time>
      </trkpt>
      <trkpt lat="58.573497387252" lon="15.878609250121">
        <ele>51</ele>
        <time>2019-12-22T07:26:57Z</time>
      </trkpt>
      <trkpt lat="58.573456986494" lon="15.878708156541">
        <ele>50.6</ele>
        <time>2019-12-22T07:27:00Z</time>
      </trkpt>
      <trkpt lat="58.573396385357" lon="15.878868083193">
        <ele>49.2</ele>
        <time>2019-12-22T07:27:04Z</time>
      </trkpt>
      <trkpt lat="58.573372161666" lon="15.878964475043">
        <ele>47.8</ele>
        <time>2019-12-22T07:27:06Z</time>
      </trkpt>
      <trkpt lat="58.573353721486" lon="15.879070254621">
        <ele>46.6</ele>
        <time>2019-12-22T07:27:08Z</time>
      </trkpt>
      <trkpt lat="58.573310722339" lon="15.879277455189">
        <ele>45.4</ele>
        <time>2019-12-22T07:27:12Z</time>
      </trkpt>
      <trkpt lat="58.573287420657" lon="15.879436208375">
        <ele>44.4</ele>
        <time>2019-12-22T07:27:15Z</time>
      </trkpt>
      <trkpt lat="58.573258335464" lon="15.879742231544">
        <ele>43</ele>
        <time>2019-12-22T07:27:21Z</time>
      </trkpt>
      <trkpt lat="58.573258167826" lon="15.879886484043">
        <ele>41.8</ele>
        <time>2019-12-22T07:27:24Z</time>
      </trkpt>
      <trkpt lat="58.573250540297" lon="15.880043057935">
        <ele>40.4</ele>
        <time>2019-12-22T07:27:27Z</time>
      </trkpt>
      <trkpt lat="58.573232435393" lon="15.880198374542">
        <ele>39.4</ele>
        <time>2019-12-22T07:27:30Z</time>
      </trkpt>
      <trkpt lat="58.573204272209" lon="15.88055896388">
        <ele>39</ele>
        <time>2019-12-22T07:27:37Z</time>
      </trkpt>
      <trkpt lat="58.573165044917" lon="15.880920810503">
        <ele>38.8</ele>
        <time>2019-12-22T07:27:45Z</time>
      </trkpt>
      <trkpt lat="58.573113244775" lon="15.881260696548">
        <ele>40.6</ele>
        <time>2019-12-22T07:27:54Z</time>
      </trkpt>
      <trkpt lat="58.573077370243" lon="15.881495641205">
        <ele>41.6</ele>
        <time>2019-12-22T07:28:00Z</time>
      </trkpt>
      <trkpt lat="58.573031772707" lon="15.881767885317">
        <ele>42.6</ele>
        <time>2019-12-22T07:28:06Z</time>
      </trkpt>
      <trkpt lat="58.572981062212" lon="15.882123696972">
        <ele>43.4</ele>
        <time>2019-12-22T07:28:14Z</time>
      </trkpt>
      <trkpt lat="58.572955916512" lon="15.882429468684">
        <ele>43.8</ele>
        <time>2019-12-22T07:28:20Z</time>
      </trkpt>
      <trkpt lat="58.572913252641" lon="15.882782346674">
        <ele>42.8</ele>
        <time>2019-12-22T07:28:27Z</time>
      </trkpt>
      <trkpt lat="58.57290495456" lon="15.882831380789">
        <ele>42.8</ele>
        <time>2019-12-22T07:28:28Z</time>
      </trkpt>
      <trkpt lat="58.572859524662" lon="15.883179313458">
        <ele>43.6</ele>
        <time>2019-12-22T07:28:36Z</time>
      </trkpt>
      <trkpt lat="58.572855166074" lon="15.883218624569">
        <ele>43.8</ele>
        <time>2019-12-22T07:28:37Z</time>
      </trkpt>
      <trkpt lat="58.5728177828" lon="15.883555074035">
        <ele>44.8</ele>
        <time>2019-12-22T07:28:45Z</time>
      </trkpt>
      <trkpt lat="58.572809903814" lon="15.883896720279">
        <ele>45.6</ele>
        <time>2019-12-22T07:28:52Z</time>
      </trkpt>
      <trkpt lat="58.572830858564" lon="15.884270720657">
        <ele>45.6</ele>
        <time>2019-12-22T07:29:00Z</time>
      </trkpt>
      <trkpt lat="58.572877126652" lon="15.884607840675">
        <ele>45</ele>
        <time>2019-12-22T07:29:07Z</time>
      </trkpt>
      <trkpt lat="58.572988689741" lon="15.884880000968">
        <ele>44.8</ele>
        <time>2019-12-22T07:29:15Z</time>
      </trkpt>
      <trkpt lat="58.573167391849" lon="15.884953845507">
        <ele>44.8</ele>
        <time>2019-12-22T07:29:23Z</time>
      </trkpt>
      <trkpt lat="58.573357828617" lon="15.885001035604">
        <ele>44.6</ele>
        <time>2019-12-22T07:29:30Z</time>
      </trkpt>
      <trkpt lat="58.573538877657" lon="15.885076388885">
        <ele>45</ele>
        <time>2019-12-22T07:29:37Z</time>
      </trkpt>
      <trkpt lat="58.57372135162" lon="15.885227430723">
        <ele>44.8</ele>
        <time>2019-12-22T07:29:45Z</time>
      </trkpt>
      <trkpt lat="58.573905921058" lon="15.88538358552">
        <ele>44.2</ele>
        <time>2019-12-22T07:29:53Z</time>
      </trkpt>
      <trkpt lat="58.57408428789" lon="15.885515684264">
        <ele>43.6</ele>
        <time>2019-12-22T07:30:00Z</time>
      </trkpt>
      <trkpt lat="58.574263995826" lon="15.885658176564">
        <ele>43.8</ele>
        <time>2019-12-22T07:30:07Z</time>
      </trkpt>
      <trkpt lat="58.574444793409" lon="15.88576999111">
        <ele>43.6</ele>
        <time>2019-12-22T07:30:14Z</time>
      </trkpt>
      <trkpt lat="58.57462994958" lon="15.885883565855">
        <ele>42.6</ele>
        <time>2019-12-22T07:30:22Z</time>
      </trkpt>
      <trkpt lat="58.574799683055" lon="15.88594768739">
        <ele>41.6</ele>
        <time>2019-12-22T07:30:29Z</time>
      </trkpt>
      <trkpt lat="58.574974613308" lon="15.886071068958">
        <ele>41.2</ele>
        <time>2019-12-22T07:30:36Z</time>
      </trkpt>
      <trkpt lat="58.575125822784" lon="15.886194199069">
        <ele>40.6</ele>
        <time>2019-12-22T07:30:42Z</time>
      </trkpt>
      <trkpt lat="58.575297316458" lon="15.886315066067">
        <ele>40.6</ele>
        <time>2019-12-22T07:30:50Z</time>
      </trkpt>
      <trkpt lat="58.575497811506" lon="15.886395867583">
        <ele>40.2</ele>
        <time>2019-12-22T07:30:58Z</time>
      </trkpt>
      <trkpt lat="58.575671735931" lon="15.886496366564">
        <ele>39.8</ele>
        <time>2019-12-22T07:31:05Z</time>
      </trkpt>
      <trkpt lat="58.57572211115" lon="15.886525703214">
        <ele>39.4</ele>
        <time>2019-12-22T07:31:07Z</time>
      </trkpt>
      <trkpt lat="58.575910955357" lon="15.886600302124">
        <ele>39.4</ele>
        <time>2019-12-22T07:31:16Z</time>
      </trkpt>
      <trkpt lat="58.57609091475" lon="15.88658806455">
        <ele>40</ele>
        <time>2019-12-22T07:31:23Z</time>
      </trkpt>
      <trkpt lat="58.576203316029" lon="15.886538695159">
        <ele>40.4</ele>
        <time>2019-12-22T07:31:28Z</time>
      </trkpt>
      <trkpt lat="58.576355279876" lon="15.886387820959">
        <ele>41.6</ele>
        <time>2019-12-22T07:31:37Z</time>
      </trkpt>
      <trkpt lat="58.57645804197" lon="15.886314311696">
        <ele>42.6</ele>
        <time>2019-12-22T07:31:42Z</time>
      </trkpt>
      <trkpt lat="58.576590978904" lon="15.886159917098">
        <ele>43.8</ele>
        <time>2019-12-22T07:31:49Z</time>
      </trkpt>
      <trkpt lat="58.576667505651" lon="15.886012395658">
        <ele>44.8</ele>
        <time>2019-12-22T07:31:54Z</time>
      </trkpt>
      <trkpt lat="58.576827348484" lon="15.885827323306">
        <ele>45.6</ele>
        <time>2019-12-22T07:32:03Z</time>
      </trkpt>
      <trkpt lat="58.576844028465" lon="15.885816343017">
        <ele>45.8</ele>
        <time>2019-12-22T07:32:04Z</time>
      </trkpt>
      <trkpt lat="58.577035973975" lon="15.885743252849">
        <ele>46.4</ele>
        <time>2019-12-22T07:32:13Z</time>
      </trkpt>
      <trkpt lat="58.577235463195" lon="15.885714838208">
        <ele>46.8</ele>
        <time>2019-12-22T07:32:22Z</time>
      </trkpt>
      <trkpt lat="58.577261363266" lon="15.885717855692">
        <ele>46.8</ele>
        <time>2019-12-22T07:32:23Z</time>
      </trkpt>
      <trkpt lat="58.577444088686" lon="15.885698493503">
        <ele>47.2</ele>
        <time>2019-12-22T07:32:31Z</time>
      </trkpt>
      <trkpt lat="58.577654642014" lon="15.885678796038">
        <ele>47.2</ele>
        <time>2019-12-22T07:32:39Z</time>
      </trkpt>
      <trkpt lat="58.577856729623" lon="15.885678544581">
        <ele>46.8</ele>
        <time>2019-12-22T07:32:47Z</time>
      </trkpt>
      <trkpt lat="58.578037946301" lon="15.885647950646">
        <ele>45.8</ele>
        <time>2019-12-22T07:32:53Z</time>
      </trkpt>
      <trkpt lat="58.578112293754" lon="15.885628420819">
        <ele>44.6</ele>
        <time>2019-12-22T07:32:56Z</time>
      </trkpt>
      <trkpt lat="58.578299880676" lon="15.885591959554">
        <ele>43.8</ele>
        <time>2019-12-22T07:33:03Z</time>
      </trkpt>
      <trkpt lat="58.578325864566" lon="15.885580141075">
        <ele>43.4</ele>
        <time>2019-12-22T07:33:04Z</time>
      </trkpt>
      <trkpt lat="58.578493502566" lon="15.885455418403">
        <ele>42.6</ele>
        <time>2019-12-22T07:33:11Z</time>
      </trkpt>
      <trkpt lat="58.578525353786" lon="15.885396074551">
        <ele>44.6</ele>
        <time>2019-12-22T07:33:13Z</time>
      </trkpt>
      <trkpt lat="58.578584865276" lon="15.885305214755">
        <ele>46.6</ele>
        <time>2019-12-22T07:33:16Z</time>
      </trkpt>
      <trkpt lat="58.578622583826" lon="15.88520337467">
        <ele>46.2</ele>
        <time>2019-12-22T07:33:19Z</time>
      </trkpt>
      <trkpt lat="58.578717969848" lon="15.884892489999">
        <ele>47.6</ele>
        <time>2019-12-22T07:33:29Z</time>
      </trkpt>
      <trkpt lat="58.578788964541" lon="15.884532655032">
        <ele>48</ele>
        <time>2019-12-22T07:33:38Z</time>
      </trkpt>
      <trkpt lat="58.578868508772" lon="15.884196959937">
        <ele>48</ele>
        <time>2019-12-22T07:33:45Z</time>
      </trkpt>
      <trkpt lat="58.578964565346" lon="15.88387987266">
        <ele>48.2</ele>
        <time>2019-12-22T07:33:53Z</time>
      </trkpt>
      <trkpt lat="58.579083923602" lon="15.883620620493">
        <ele>48.2</ele>
        <time>2019-12-22T07:34:00Z</time>
      </trkpt>
      <trkpt lat="58.579214345966" lon="15.883380479058">
        <ele>47.6</ele>
        <time>2019-12-22T07:34:07Z</time>
      </trkpt>
      <trkpt lat="58.579385504364" lon="15.88321267342">
        <ele>48</ele>
        <time>2019-12-22T07:34:15Z</time>
      </trkpt>
      <trkpt lat="58.579542329713" lon="15.883036066787">
        <ele>48.2</ele>
        <time>2019-12-22T07:34:23Z</time>
      </trkpt>
      <trkpt lat="58.579574097114" lon="15.882979740419">
        <ele>48.6</ele>
        <time>2019-12-22T07:34:25Z</time>
      </trkpt>
      <trkpt lat="58.579732179748" lon="15.88276005082">
        <ele>49.4</ele>
        <time>2019-12-22T07:34:34Z</time>
      </trkpt>
      <trkpt lat="58.579850951271" lon="15.882623928764">
        <ele>50</ele>
        <time>2019-12-22T07:34:40Z</time>
      </trkpt>
      <trkpt lat="58.580016912891" lon="15.882413962169">
        <ele>50.2</ele>
        <time>2019-12-22T07:34:48Z</time>
      </trkpt>
      <trkpt lat="58.580188490384" lon="15.882205420497">
        <ele>49.8</ele>
        <time>2019-12-22T07:34:57Z</time>
      </trkpt>
      <trkpt lat="58.580393679296" lon="15.882153536536">
        <ele>49.2</ele>
        <time>2019-12-22T07:35:05Z</time>
      </trkpt>
      <trkpt lat="58.580597191828" lon="15.882065442767">
        <ele>49.2</ele>
        <time>2019-12-22T07:35:13Z</time>
      </trkpt>
      <trkpt lat="58.580717639731" lon="15.881950862194">
        <ele>49</ele>
        <time>2019-12-22T07:35:18Z</time>
      </trkpt>
      <trkpt lat="58.580857366004" lon="15.881810716826">
        <ele>47.6</ele>
        <time>2019-12-22T07:35:24Z</time>
      </trkpt>
      <trkpt lat="58.580939592443" lon="15.881711223673">
        <ele>46.4</ele>
        <time>2019-12-22T07:35:28Z</time>
      </trkpt>
      <trkpt lat="58.581093316489" lon="15.881525732226">
        <ele>45.8</ele>
        <time>2019-12-22T07:35:36Z</time>
      </trkpt>
      <trkpt lat="58.581147044468" lon="15.881449289298">
        <ele>47.6</ele>
        <time>2019-12-22T07:35:41Z</time>
      </trkpt>
      <trkpt lat="58.581169424141" lon="15.881414588232">
        <ele>48.6</ele>
        <time>2019-12-22T07:35:43Z</time>
      </trkpt>
      <trkpt lat="58.581227762165" lon="15.88133261325">
        <ele>49.6</ele>
        <time>2019-12-22T07:35:47Z</time>
      </trkpt>
      <trkpt lat="58.581395483984" lon="15.881129938908">
        <ele>50</ele>
        <time>2019-12-22T07:35:56Z</time>
      </trkpt>
      <trkpt lat="58.581424401539" lon="15.88108115625">
        <ele>50.2</ele>
        <time>2019-12-22T07:35:58Z</time>
      </trkpt>
      <trkpt lat="58.58155758993" lon="15.881228342414">
        <ele>48.4</ele>
        <time>2019-12-22T07:36:07Z</time>
      </trkpt>
      <trkpt lat="58.581694885452" lon="15.881458677026">
        <ele>47.8</ele>
        <time>2019-12-22T07:36:13Z</time>
      </trkpt>
      <trkpt lat="58.581740147712" lon="15.881554565962">
        <ele>47.2</ele>
        <time>2019-12-22T07:36:15Z</time>
      </trkpt>
      <trkpt lat="58.581774262045" lon="15.881715833718">
        <ele>46.2</ele>
        <time>2019-12-22T07:36:18Z</time>
      </trkpt>
      <trkpt lat="58.581775267873" lon="15.881879364587">
        <ele>44.8</ele>
        <time>2019-12-22T07:36:21Z</time>
      </trkpt>
      <trkpt lat="58.5817612701" lon="15.882247413816">
        <ele>44</ele>
        <time>2019-12-22T07:36:28Z</time>
      </trkpt>
      <trkpt lat="58.581742913739" lon="15.882358138715">
        <ele>43.6</ele>
        <time>2019-12-22T07:36:30Z</time>
      </trkpt>
      <trkpt lat="58.581724473559" lon="15.882709424144">
        <ele>43.4</ele>
        <time>2019-12-22T07:36:38Z</time>
      </trkpt>
      <trkpt lat="58.581686252095" lon="15.883074707346">
        <ele>43.6</ele>
        <time>2019-12-22T07:36:46Z</time>
      </trkpt>
      <trkpt lat="58.581654903789" lon="15.883444432955">
        <ele>43.6</ele>
        <time>2019-12-22T07:36:54Z</time>
      </trkpt>
      <trkpt lat="58.58158273563" lon="15.883802004809">
        <ele>44</ele>
        <time>2019-12-22T07:37:02Z</time>
      </trkpt>
      <trkpt lat="58.581503442856" lon="15.884123953588">
        <ele>43.6</ele>
        <time>2019-12-22T07:37:09Z</time>
      </trkpt>
      <trkpt lat="58.581422054607" lon="15.884454619543">
        <ele>42.8</ele>
        <time>2019-12-22T07:37:16Z</time>
      </trkpt>
      <trkpt lat="58.581407302463" lon="15.884499043613">
        <ele>42.6</ele>
        <time>2019-12-22T07:37:17Z</time>
      </trkpt>
      <trkpt lat="58.581287776569" lon="15.884780843091">
        <ele>41.6</ele>
        <time>2019-12-22T07:37:24Z</time>
      </trkpt>
      <trkpt lat="58.581154252902" lon="15.885037832145">
        <ele>41.4</ele>
        <time>2019-12-22T07:37:31Z</time>
      </trkpt>
      <trkpt lat="58.581044450012" lon="15.885338407079">
        <ele>41</ele>
        <time>2019-12-22T07:37:39Z</time>
      </trkpt>
      <trkpt lat="58.580997259915" lon="15.885507302364">
        <ele>40.6</ele>
        <time>2019-12-22T07:37:43Z</time>
      </trkpt>
      <trkpt lat="58.580935820588" lon="15.885738475166">
        <ele>39.4</ele>
        <time>2019-12-22T07:37:48Z</time>
      </trkpt>
      <trkpt lat="58.580885026274" lon="15.885984064836">
        <ele>38.4</ele>
        <time>2019-12-22T07:37:53Z</time>
      </trkpt>
      <trkpt lat="58.580815707961" lon="15.886311126574">
        <ele>37.6</ele>
        <time>2019-12-22T07:38:00Z</time>
      </trkpt>
      <trkpt lat="58.58085518671" lon="15.886632237163">
        <ele>37.8</ele>
        <time>2019-12-22T07:38:08Z</time>
      </trkpt>
      <trkpt lat="58.581021399787" lon="15.886780093879">
        <ele>38.2</ele>
        <time>2019-12-22T07:38:16Z</time>
      </trkpt>
      <trkpt lat="58.581197754963" lon="15.886922921455">
        <ele>38.4</ele>
        <time>2019-12-22T07:38:23Z</time>
      </trkpt>
      <trkpt lat="58.581366817886" lon="15.887074047112">
        <ele>38.6</ele>
        <time>2019-12-22T07:38:30Z</time>
      </trkpt>
      <trkpt lat="58.581546609641" lon="15.887243026216">
        <ele>38.8</ele>
        <time>2019-12-22T07:38:38Z</time>
      </trkpt>
      <trkpt lat="58.581740231531" lon="15.887366659241">
        <ele>39</ele>
        <time>2019-12-22T07:38:46Z</time>
      </trkpt>
      <trkpt lat="58.581937457638" lon="15.887413765519">
        <ele>39</ele>
        <time>2019-12-22T07:38:54Z</time>
      </trkpt>
      <trkpt lat="58.582132839727" lon="15.887396750262">
        <ele>38.8</ele>
        <time>2019-12-22T07:39:02Z</time>
      </trkpt>
      <trkpt lat="58.582327718902" lon="15.887375041141">
        <ele>38.2</ele>
        <time>2019-12-22T07:39:10Z</time>
      </trkpt>
      <trkpt lat="58.582450765194" lon="15.887250905202">
        <ele>37.4</ele>
        <time>2019-12-22T07:39:15Z</time>
      </trkpt>
      <trkpt lat="58.582543217551" lon="15.886934320839">
        <ele>37</ele>
        <time>2019-12-22T07:39:23Z</time>
      </trkpt>
      <trkpt lat="58.582574901133" lon="15.886580939935">
        <ele>36.8</ele>
        <time>2019-12-22T07:39:30Z</time>
      </trkpt>
      <trkpt lat="58.58263214951" lon="15.886243819917">
        <ele>36.8</ele>
        <time>2019-12-22T07:39:37Z</time>
      </trkpt>
      <trkpt lat="58.582691158086" lon="15.885918015464">
        <ele>36.6</ele>
        <time>2019-12-22T07:39:44Z</time>
      </trkpt>
      <trkpt lat="58.582747652092" lon="15.885574609021">
        <ele>37</ele>
        <time>2019-12-22T07:39:51Z</time>
      </trkpt>
      <trkpt lat="58.582831471092" lon="15.885365899711">
        <ele>36.2</ele>
        <time>2019-12-22T07:39:57Z</time>
      </trkpt>
      <trkpt lat="58.582941273982" lon="15.88505333866">
        <ele>35.2</ele>
        <time>2019-12-22T07:40:05Z</time>
      </trkpt>
      <trkpt lat="58.582954265927" lon="15.88500388545">
        <ele>35.2</ele>
        <time>2019-12-22T07:40:06Z</time>
      </trkpt>
      <trkpt lat="58.5830353189" lon="15.884660814283">
        <ele>34.8</ele>
        <time>2019-12-22T07:40:13Z</time>
      </trkpt>
      <trkpt lat="58.583106313593" lon="15.884319754772">
        <ele>34.6</ele>
        <time>2019-12-22T07:40:20Z</time>
      </trkpt>
      <trkpt lat="58.583224666021" lon="15.884045163728">
        <ele>35</ele>
        <time>2019-12-22T07:40:28Z</time>
      </trkpt>
      <trkpt lat="58.583368499425" lon="15.883850787467">
        <ele>36.2</ele>
        <time>2019-12-22T07:40:36Z</time>
      </trkpt>
      <trkpt lat="58.583491378079" lon="15.883594133689">
        <ele>36.6</ele>
        <time>2019-12-22T07:40:44Z</time>
      </trkpt>
      <trkpt lat="58.583598331123" lon="15.883398248686">
        <ele>37.4</ele>
        <time>2019-12-22T07:40:50Z</time>
      </trkpt>
      <trkpt lat="58.583749875875" lon="15.883203537149">
        <ele>38</ele>
        <time>2019-12-22T07:40:57Z</time>
      </trkpt>
      <trkpt lat="58.583922710653" lon="15.883065403437">
        <ele>38</ele>
        <time>2019-12-22T07:41:04Z</time>
      </trkpt>
      <trkpt lat="58.584091103024" lon="15.882899525636">
        <ele>37.6</ele>
        <time>2019-12-22T07:41:12Z</time>
      </trkpt>
      <trkpt lat="58.58425991449" lon="15.882734318387">
        <ele>37.2</ele>
        <time>2019-12-22T07:41:18Z</time>
      </trkpt>
      <trkpt lat="58.584431994897" lon="15.882532314597">
        <ele>36.6</ele>
        <time>2019-12-22T07:41:25Z</time>
      </trkpt>
      <trkpt lat="58.584457140597" lon="15.882502642671">
        <ele>36.4</ele>
        <time>2019-12-22T07:41:26Z</time>
      </trkpt>
      <trkpt lat="58.584603153295" lon="15.88228228252">
        <ele>36</ele>
        <time>2019-12-22T07:41:33Z</time>
      </trkpt>
      <trkpt lat="58.584710944529" lon="15.882154710002">
        <ele>35.2</ele>
        <time>2019-12-22T07:41:38Z</time>
      </trkpt>
      <trkpt lat="58.584876906149" lon="15.882009619313">
        <ele>34.8</ele>
        <time>2019-12-22T07:41:45Z</time>
      </trkpt>
      <trkpt lat="58.584947481747" lon="15.881963099768">
        <ele>34.2</ele>
        <time>2019-12-22T07:41:48Z</time>
      </trkpt>
      <trkpt lat="58.585115203566" lon="15.882016492471">
        <ele>33.8</ele>
        <time>2019-12-22T07:41:55Z</time>
      </trkpt>
      <trkpt lat="58.585169937373" lon="15.882346404055">
        <ele>33.6</ele>
        <time>2019-12-22T07:42:01Z</time>
      </trkpt>
      <trkpt lat="58.585185024793" lon="15.88258319273">
        <ele>33.2</ele>
        <time>2019-12-22T07:42:05Z</time>
      </trkpt>
      <trkpt lat="58.585179828015" lon="15.882975884745">
        <ele>32.4</ele>
        <time>2019-12-22T07:42:12Z</time>
      </trkpt>
      <trkpt lat="58.585177900178" lon="15.88323614274">
        <ele>32.2</ele>
        <time>2019-12-22T07:42:17Z</time>
      </trkpt>
      <trkpt lat="58.585176810531" lon="15.88358902073">
        <ele>32</ele>
        <time>2019-12-22T07:42:24Z</time>
      </trkpt>
      <trkpt lat="58.585164237681" lon="15.883943156005">
        <ele>31.6</ele>
        <time>2019-12-22T07:42:31Z</time>
      </trkpt>
      <trkpt lat="58.585154766134" lon="15.884332998174">
        <ele>31.4</ele>
        <time>2019-12-22T07:42:39Z</time>
      </trkpt>
      <trkpt lat="58.585162309844" lon="15.884630136529">
        <ele>31.2</ele>
        <time>2019-12-22T07:42:45Z</time>
      </trkpt>
      <trkpt lat="58.585195250711" lon="15.885020397793">
        <ele>30.6</ele>
        <time>2019-12-22T07:42:53Z</time>
      </trkpt>
      <trkpt lat="58.585239339505" lon="15.885368162824">
        <ele>30.2</ele>
        <time>2019-12-22T07:43:00Z</time>
      </trkpt>
      <trkpt lat="58.585248224319" lon="15.885459776991">
        <ele>30.2</ele>
        <time>2019-12-22T07:43:02Z</time>
      </trkpt>
      <trkpt lat="58.585288876534" lon="15.885807039108">
        <ele>29.6</ele>
        <time>2019-12-22T07:43:09Z</time>
      </trkpt>
      <trkpt lat="58.5853235776" lon="15.886153965949">
        <ele>29.8</ele>
        <time>2019-12-22T07:43:16Z</time>
      </trkpt>
      <trkpt lat="58.585345789635" lon="15.886361920888">
        <ele>29.2</ele>
        <time>2019-12-22T07:43:20Z</time>
      </trkpt>
      <trkpt lat="58.585382334719" lon="15.886704740598">
        <ele>29.2</ele>
        <time>2019-12-22T07:43:27Z</time>
      </trkpt>
      <trkpt lat="58.585432374662" lon="15.887045297195">
        <ele>29.2</ele>
        <time>2019-12-22T07:43:34Z</time>
      </trkpt>
      <trkpt lat="58.585485683546" lon="15.887399600108">
        <ele>28.8</ele>
        <time>2019-12-22T07:43:41Z</time>
      </trkpt>
      <trkpt lat="58.585519462603" lon="15.887743677103">
        <ele>28.6</ele>
        <time>2019-12-22T07:43:48Z</time>
      </trkpt>
      <trkpt lat="58.585541255543" lon="15.88810518845">
        <ele>28.4</ele>
        <time>2019-12-22T07:43:55Z</time>
      </trkpt>
      <trkpt lat="58.585568496718" lon="15.888454043128">
        <ele>28.4</ele>
        <time>2019-12-22T07:44:02Z</time>
      </trkpt>
      <trkpt lat="58.585585260518" lon="15.888603492405">
        <ele>28.2</ele>
        <time>2019-12-22T07:44:05Z</time>
      </trkpt>
      <trkpt lat="58.585621889421" lon="15.888976319317">
        <ele>28</ele>
        <time>2019-12-22T07:44:12Z</time>
      </trkpt>
      <trkpt lat="58.585642676533" lon="15.889333472076">
        <ele>27.8</ele>
        <time>2019-12-22T07:44:20Z</time>
      </trkpt>
      <trkpt lat="58.585660697618" lon="15.889702275676">
        <ele>28</ele>
        <time>2019-12-22T07:44:28Z</time>
      </trkpt>
      <trkpt lat="58.585677629056" lon="15.89008834599">
        <ele>28</ele>
        <time>2019-12-22T07:44:36Z</time>
      </trkpt>
      <trkpt lat="58.585706798068" lon="15.890438625591">
        <ele>28.2</ele>
        <time>2019-12-22T07:44:43Z</time>
      </trkpt>
      <trkpt lat="58.585729932112" lon="15.890798460558">
        <ele>28</ele>
        <time>2019-12-22T07:44:50Z</time>
      </trkpt>
      <trkpt lat="58.585755329269" lon="15.891151925281">
        <ele>27.8</ele>
        <time>2019-12-22T07:44:57Z</time>
      </trkpt>
      <trkpt lat="58.585766896291" lon="15.891525255107">
        <ele>28</ele>
        <time>2019-12-22T07:45:04Z</time>
      </trkpt>
      <trkpt lat="58.585781313159" lon="15.891888191377">
        <ele>28.4</ele>
        <time>2019-12-22T07:45:11Z</time>
      </trkpt>
      <trkpt lat="58.585784414462" lon="15.892243248661">
        <ele>28.8</ele>
        <time>2019-12-22T07:45:18Z</time>
      </trkpt>
      <trkpt lat="58.585769829956" lon="15.892631162993">
        <ele>29</ele>
        <time>2019-12-22T07:45:26Z</time>
      </trkpt>
      <trkpt lat="58.585763375893" lon="15.892985046811">
        <ele>29.2</ele>
        <time>2019-12-22T07:45:33Z</time>
      </trkpt>
      <trkpt lat="58.585754742536" lon="15.893361142664">
        <ele>29.6</ele>
        <time>2019-12-22T07:45:41Z</time>
      </trkpt>
      <trkpt lat="58.585749126663" lon="15.893715613215">
        <ele>29.6</ele>
        <time>2019-12-22T07:45:49Z</time>
      </trkpt>
      <trkpt lat="58.585737392003" lon="15.894066563368">
        <ele>29.6</ele>
        <time>2019-12-22T07:45:56Z</time>
      </trkpt>
      <trkpt lat="58.585728674827" lon="15.894412400562">
        <ele>30</ele>
        <time>2019-12-22T07:46:03Z</time>
      </trkpt>
      <trkpt lat="58.585706798068" lon="15.894707359623">
        <ele>30.2</ele>
        <time>2019-12-22T07:46:09Z</time>
      </trkpt>
      <trkpt lat="58.585668995699" lon="15.895089490444">
        <ele>30.6</ele>
        <time>2019-12-22T07:46:17Z</time>
      </trkpt>
      <trkpt lat="58.585635468099" lon="15.895428203023">
        <ele>30.6</ele>
        <time>2019-12-22T07:46:24Z</time>
      </trkpt>
      <trkpt lat="58.585585763432" lon="15.895758785159">
        <ele>30.8</ele>
        <time>2019-12-22T07:46:31Z</time>
      </trkpt>
      <trkpt lat="58.58553983062" lon="15.896122727257">
        <ele>31</ele>
        <time>2019-12-22T07:46:39Z</time>
      </trkpt>
      <trkpt lat="58.585521306621" lon="15.896265554833">
        <ele>31.4</ele>
        <time>2019-12-22T07:46:42Z</time>
      </trkpt>
      <trkpt lat="58.58553396329" lon="15.896490357391">
        <ele>31.4</ele>
        <time>2019-12-22T07:46:47Z</time>
      </trkpt>
      <trkpt lat="58.585726914628" lon="15.896432857557">
        <ele>32.2</ele>
        <time>2019-12-22T07:46:55Z</time>
      </trkpt>
      <trkpt lat="58.585908298944" lon="15.896260944788">
        <ele>32.2</ele>
        <time>2019-12-22T07:47:02Z</time>
      </trkpt>
      <trkpt lat="58.585946017494" lon="15.896196320339">
        <ele>32.4</ele>
        <time>2019-12-22T07:47:04Z</time>
      </trkpt>
      <trkpt lat="58.586082726283" lon="15.895956430361">
        <ele>32.8</ele>
        <time>2019-12-22T07:47:11Z</time>
      </trkpt>
      <trkpt lat="58.586233935759" lon="15.89575031944">
        <ele>33.4</ele>
        <time>2019-12-22T07:47:18Z</time>
      </trkpt>
      <trkpt lat="58.586307696479" lon="15.895695250357">
        <ele>33.4</ele>
        <time>2019-12-22T07:47:21Z</time>
      </trkpt>
      <trkpt lat="58.58647441247" lon="15.895561139957">
        <ele>33.6</ele>
        <time>2019-12-22T07:47:28Z</time>
      </trkpt>
      <trkpt lat="58.586645487049" lon="15.895429879403">
        <ele>34.4</ele>
        <time>2019-12-22T07:47:36Z</time>
      </trkpt>
      <trkpt lat="58.586825530261" lon="15.895283363791">
        <ele>34.4</ele>
        <time>2019-12-22T07:47:44Z</time>
      </trkpt>
      <trkpt lat="58.586849167219" lon="15.895265594163">
        <ele>34.6</ele>
        <time>2019-12-22T07:47:45Z</time>
      </trkpt>
      <trkpt lat="58.587025354757" lon="15.89514682264">
        <ele>33.8</ele>
        <time>2019-12-22T07:47:52Z</time>
      </trkpt>
      <trkpt lat="58.587171535093" lon="15.89504204889">
        <ele>33.6</ele>
        <time>2019-12-22T07:47:57Z</time>
      </trkpt>
      <trkpt lat="58.587355769255" lon="15.894882038419">
        <ele>33</ele>
        <time>2019-12-22T07:48:04Z</time>
      </trkpt>
      <trkpt lat="58.587531453879" lon="15.894780282153">
        <ele>33</ele>
        <time>2019-12-22T07:48:10Z</time>
      </trkpt>
      <trkpt lat="58.587715352765" lon="15.894762847801">
        <ele>32.6</ele>
        <time>2019-12-22T07:48:17Z</time>
      </trkpt>
      <trkpt lat="58.587893216683" lon="15.894815318495">
        <ele>32.6</ele>
        <time>2019-12-22T07:48:24Z</time>
      </trkpt>
      <trkpt lat="58.588052053688" lon="15.895000809942">
        <ele>32.6</ele>
        <time>2019-12-22T07:48:31Z</time>
      </trkpt>
      <trkpt lat="58.588164874062" lon="15.895189235054">
        <ele>32.6</ele>
        <time>2019-12-22T07:48:38Z</time>
      </trkpt>
      <trkpt lat="58.588149283728" lon="15.895263750145">
        <ele>33</ele>
        <time>2019-12-22T07:48:40Z</time>
      </trkpt>
      <trkpt lat="58.588105362572" lon="15.895359471443">
        <ele>32.2</ele>
        <time>2019-12-22T07:48:43Z</time>
      </trkpt>
      <trkpt lat="58.58798985999" lon="15.89563800198">
        <ele>31.2</ele>
        <time>2019-12-22T07:48:51Z</time>
      </trkpt>
      <trkpt lat="58.587876788159" lon="15.895952909963">
        <ele>31</ele>
        <time>2019-12-22T07:48:58Z</time>
      </trkpt>
      <trkpt lat="58.587780228671" lon="15.896228003921">
        <ele>30.2</ele>
        <time>2019-12-22T07:49:05Z</time>
      </trkpt>
      <trkpt lat="58.587686267572" lon="15.896523214439">
        <ele>29.8</ele>
        <time>2019-12-22T07:49:12Z</time>
      </trkpt>
      <trkpt lat="58.58758249965" lon="15.896850359996">
        <ele>30.4</ele>
        <time>2019-12-22T07:49:20Z</time>
      </trkpt>
      <trkpt lat="58.587478647909" lon="15.897134422587">
        <ele>30.4</ele>
        <time>2019-12-22T07:49:27Z</time>
      </trkpt>
      <trkpt lat="58.58736959939" lon="15.897414378047">
        <ele>31.2</ele>
        <time>2019-12-22T07:49:35Z</time>
      </trkpt>
      <trkpt lat="58.587356020712" lon="15.897450587855">
        <ele>31.2</ele>
        <time>2019-12-22T07:49:36Z</time>
      </trkpt>
      <trkpt lat="58.587235991904" lon="15.897762981268">
        <ele>31.8</ele>
        <time>2019-12-22T07:49:44Z</time>
      </trkpt>
      <trkpt lat="58.587142868995" lon="15.898012929526">
        <ele>32.2</ele>
        <time>2019-12-22T07:49:49Z</time>
      </trkpt>
      <trkpt lat="58.587051757742" lon="15.898310654614">
        <ele>31.8</ele>
        <time>2019-12-22T07:49:56Z</time>
      </trkpt>
      <trkpt lat="58.586940529929" lon="15.898621036371">
        <ele>31.8</ele>
        <time>2019-12-22T07:50:04Z</time>
      </trkpt>
      <trkpt lat="58.58682561408" lon="15.898902584392">
        <ele>31.8</ele>
        <time>2019-12-22T07:50:13Z</time>
      </trkpt>
      <trkpt lat="58.586735760112" lon="15.899086650916">
        <ele>32.4</ele>
        <time>2019-12-22T07:50:19Z</time>
      </trkpt>
      <trkpt lat="58.586671722396" lon="15.899246745206">
        <ele>33.2</ele>
        <time>2019-12-22T07:50:23Z</time>
      </trkpt>
      <trkpt lat="58.586604834834" lon="15.899503818079">
        <ele>34.2</ele>
        <time>2019-12-22T07:50:29Z</time>
      </trkpt>
      <trkpt lat="58.586522943671" lon="15.899868011634">
        <ele>33.4</ele>
        <time>2019-12-22T07:50:36Z</time>
      </trkpt>
      <trkpt lat="58.586482291456" lon="15.900080073704">
        <ele>33.2</ele>
        <time>2019-12-22T07:50:40Z</time>
      </trkpt>
      <trkpt lat="58.586413559876" lon="15.900441501232">
        <ele>33.4</ele>
        <time>2019-12-22T07:50:48Z</time>
      </trkpt>
      <trkpt lat="58.586347426685" lon="15.900786919331">
        <ele>33</ele>
        <time>2019-12-22T07:50:55Z</time>
      </trkpt>
      <trkpt lat="58.586300990959" lon="15.901156058207">
        <ele>33.2</ele>
        <time>2019-12-22T07:51:03Z</time>
      </trkpt>
      <trkpt lat="58.586231756465" lon="15.901497620632">
        <ele>33.8</ele>
        <time>2019-12-22T07:51:11Z</time>
      </trkpt>
      <trkpt lat="58.586209879706" lon="15.901666851193">
        <ele>34.4</ele>
        <time>2019-12-22T07:51:15Z</time>
      </trkpt>
      <trkpt lat="58.586185907472" lon="15.901811438968">
        <ele>35</ele>
        <time>2019-12-22T07:51:19Z</time>
      </trkpt>
      <trkpt lat="58.58617769321" lon="15.901871956286">
        <ele>35.6</ele>
        <time>2019-12-22T07:51:21Z</time>
      </trkpt>
      <trkpt lat="58.586143075963" lon="15.902026267065">
        <ele>37.2</ele>
        <time>2019-12-22T07:51:26Z</time>
      </trkpt>
      <trkpt lat="58.586068141777" lon="15.902378474503">
        <ele>38.4</ele>
        <time>2019-12-22T07:51:34Z</time>
      </trkpt>
      <trkpt lat="58.585990860659" lon="15.902697321979">
        <ele>37.4</ele>
        <time>2019-12-22T07:51:42Z</time>
      </trkpt>
      <trkpt lat="58.585980550922" lon="15.902742668058">
        <ele>37.2</ele>
        <time>2019-12-22T07:51:43Z</time>
      </trkpt>
      <trkpt lat="58.585900503777" lon="15.903071573814">
        <ele>36.2</ele>
        <time>2019-12-22T07:51:50Z</time>
      </trkpt>
      <trkpt lat="58.585890361678" lon="15.903118344816">
        <ele>35.8</ele>
        <time>2019-12-22T07:51:51Z</time>
      </trkpt>
      <trkpt lat="58.585856750259" lon="15.903231416647">
        <ele>34.6</ele>
        <time>2019-12-22T07:51:54Z</time>
      </trkpt>
      <trkpt lat="58.585794472742" lon="15.903525118423">
        <ele>33.6</ele>
        <time>2019-12-22T07:52:00Z</time>
      </trkpt>
      <trkpt lat="58.585712581579" lon="15.903882355001">
        <ele>32.8</ele>
        <time>2019-12-22T07:52:07Z</time>
      </trkpt>
      <trkpt lat="58.585626918561" lon="15.904224336521">
        <ele>32.6</ele>
        <time>2019-12-22T07:52:14Z</time>
      </trkpt>
      <trkpt lat="58.5855834165" lon="15.904463220671">
        <ele>32.4</ele>
        <time>2019-12-22T07:52:19Z</time>
      </trkpt>
      <trkpt lat="58.585505045735" lon="15.904772680419">
        <ele>32.2</ele>
        <time>2019-12-22T07:52:27Z</time>
      </trkpt>
      <trkpt lat="58.585413347749" lon="15.905098149596">
        <ele>32</ele>
        <time>2019-12-22T07:52:35Z</time>
      </trkpt>
      <trkpt lat="58.585320727754" lon="15.905414817778">
        <ele>32.6</ele>
        <time>2019-12-22T07:52:43Z</time>
      </trkpt>
      <trkpt lat="58.585255516572" lon="15.905740789869">
        <ele>32</ele>
        <time>2019-12-22T07:52:50Z</time>
      </trkpt>
      <trkpt lat="58.585176223798" lon="15.906069863263">
        <ele>32.4</ele>
        <time>2019-12-22T07:52:59Z</time>
      </trkpt>
      <trkpt lat="58.585079831948" lon="15.906386196169">
        <ele>33</ele>
        <time>2019-12-22T07:53:06Z</time>
      </trkpt>
      <trkpt lat="58.585044963244" lon="15.906499100362">
        <ele>33.4</ele>
        <time>2019-12-22T07:53:09Z</time>
      </trkpt>
      <trkpt lat="58.584940943865" lon="15.906783246772">
        <ele>33.6</ele>
        <time>2019-12-22T07:53:17Z</time>
      </trkpt>
      <trkpt lat="58.584844719653" lon="15.907084827534">
        <ele>33</ele>
        <time>2019-12-22T07:53:24Z</time>
      </trkpt>
      <trkpt lat="58.584737766609" lon="15.907381798251">
        <ele>32.8</ele>
        <time>2019-12-22T07:53:31Z</time>
      </trkpt>
      <trkpt lat="58.584620587647" lon="15.907700813365">
        <ele>32.6</ele>
        <time>2019-12-22T07:53:39Z</time>
      </trkpt>
      <trkpt lat="58.584504246875" lon="15.908010021656">
        <ele>32.6</ele>
        <time>2019-12-22T07:53:47Z</time>
      </trkpt>
      <trkpt lat="58.584386229723" lon="15.908280757026">
        <ele>32.6</ele>
        <time>2019-12-22T07:53:56Z</time>
      </trkpt>
      <trkpt lat="58.584294950832" lon="15.908601197063">
        <ele>32.8</ele>
        <time>2019-12-22T07:54:04Z</time>
      </trkpt>
      <trkpt lat="58.584195625317" lon="15.908891713717">
        <ele>33.2</ele>
        <time>2019-12-22T07:54:11Z</time>
      </trkpt>
      <trkpt lat="58.584069980636" lon="15.909207208433">
        <ele>32.8</ele>
        <time>2019-12-22T07:54:19Z</time>
      </trkpt>
      <trkpt lat="58.583965542162" lon="15.909518260742">
        <ele>33.4</ele>
        <time>2019-12-22T07:54:26Z</time>
      </trkpt>
      <trkpt lat="58.58388272899" lon="15.909852279457">
        <ele>33.4</ele>
        <time>2019-12-22T07:54:34Z</time>
      </trkpt>
      <trkpt lat="58.583789941357" lon="15.910019414543">
        <ele>34.6</ele>
        <time>2019-12-22T07:54:41Z</time>
      </trkpt>
      <trkpt lat="58.583642587555" lon="15.910260645625">
        <ele>35.8</ele>
        <time>2019-12-22T07:54:50Z</time>
      </trkpt>
      <trkpt lat="58.583623057728" lon="15.910276319778">
        <ele>35.8</ele>
        <time>2019-12-22T07:54:51Z</time>
      </trkpt>
      <trkpt lat="58.583478218496" lon="15.910479664672">
        <ele>36.2</ele>
        <time>2019-12-22T07:54:58Z</time>
      </trkpt>
      <trkpt lat="58.583311418686" lon="15.910701701203">
        <ele>36.2</ele>
        <time>2019-12-22T07:55:06Z</time>
      </trkpt>
      <trkpt lat="58.583274957421" lon="15.911072935554">
        <ele>36</ele>
        <time>2019-12-22T07:55:13Z</time>
      </trkpt>
      <trkpt lat="58.583313765618" lon="15.911273179145">
        <ele>36.8</ele>
        <time>2019-12-22T07:55:18Z</time>
      </trkpt>
      <trkpt lat="58.583368750882" lon="15.911610131525">
        <ele>37.4</ele>
        <time>2019-12-22T07:55:25Z</time>
      </trkpt>
      <trkpt lat="58.583413510228" lon="15.911942222403">
        <ele>37.6</ele>
        <time>2019-12-22T07:55:32Z</time>
      </trkpt>
      <trkpt lat="58.58347033951" lon="15.912151769903">
        <ele>38</ele>
        <time>2019-12-22T07:55:36Z</time>
      </trkpt>
      <trkpt lat="58.583474949555" lon="15.912514035621">
        <ele>37.4</ele>
        <time>2019-12-22T07:55:43Z</time>
      </trkpt>
      <trkpt lat="58.583519122168" lon="15.912893903329">
        <ele>37.2</ele>
        <time>2019-12-22T07:55:51Z</time>
      </trkpt>
      <trkpt lat="58.583537729986" lon="15.913033964878">
        <ele>37</ele>
        <time>2019-12-22T07:55:54Z</time>
      </trkpt>
      <trkpt lat="58.583574945622" lon="15.913391117637">
        <ele>36.2</ele>
        <time>2019-12-22T07:56:02Z</time>
      </trkpt>
      <trkpt lat="58.583596319467" lon="15.913741481057">
        <ele>36.2</ele>
        <time>2019-12-22T07:56:09Z</time>
      </trkpt>
      <trkpt lat="58.583594056354" lon="15.913795544312">
        <ele>35.8</ele>
        <time>2019-12-22T07:56:10Z</time>
      </trkpt>
      <trkpt lat="58.583610401059" lon="15.914172813631">
        <ele>35</ele>
        <time>2019-12-22T07:56:17Z</time>
      </trkpt>
      <trkpt lat="58.583609059955" lon="15.914229223818">
        <ele>34.8</ele>
        <time>2019-12-22T07:56:18Z</time>
      </trkpt>
      <trkpt lat="58.583616519846" lon="15.914608420974">
        <ele>34.6</ele>
        <time>2019-12-22T07:56:26Z</time>
      </trkpt>
      <trkpt lat="58.583629260334" lon="15.914967333932">
        <ele>34.8</ele>
        <time>2019-12-22T07:56:34Z</time>
      </trkpt>
      <trkpt lat="58.583637223139" lon="15.915316523886">
        <ele>35.6</ele>
        <time>2019-12-22T07:56:42Z</time>
      </trkpt>
      <trkpt lat="58.583645940315" lon="15.915529759422">
        <ele>36</ele>
        <time>2019-12-22T07:56:47Z</time>
      </trkpt>
      <trkpt lat="58.58367318149" lon="15.915867214716">
        <ele>35.6</ele>
        <time>2019-12-22T07:56:54Z</time>
      </trkpt>
      <trkpt lat="58.583662536477" lon="15.916240209266">
        <ele>36</ele>
        <time>2019-12-22T07:57:02Z</time>
      </trkpt>
      <trkpt lat="58.583678965001" lon="15.916587639021">
        <ele>36</ele>
        <time>2019-12-22T07:57:09Z</time>
      </trkpt>
      <trkpt lat="58.583652813473" lon="15.916950240015">
        <ele>36.2</ele>
        <time>2019-12-22T07:57:17Z</time>
      </trkpt>
      <trkpt lat="58.583616603665" lon="15.917318456882">
        <ele>36.6</ele>
        <time>2019-12-22T07:57:25Z</time>
      </trkpt>
      <trkpt lat="58.583551476302" lon="15.917666557189">
        <ele>36.6</ele>
        <time>2019-12-22T07:57:32Z</time>
      </trkpt>
      <trkpt lat="58.583476793573" lon="15.91798330919">
        <ele>36.6</ele>
        <time>2019-12-22T07:57:39Z</time>
      </trkpt>
      <trkpt lat="58.583380820818" lon="15.918314310421">
        <ele>36.8</ele>
        <time>2019-12-22T07:57:47Z</time>
      </trkpt>
      <trkpt lat="58.583291134488" lon="15.918583537049">
        <ele>37</ele>
        <time>2019-12-22T07:57:54Z</time>
      </trkpt>
      <trkpt lat="58.583170770404" lon="15.91886759964">
        <ele>37.4</ele>
        <time>2019-12-22T07:58:02Z</time>
      </trkpt>
      <trkpt lat="58.583024673887" lon="15.919118553726">
        <ele>37.4</ele>
        <time>2019-12-22T07:58:09Z</time>
      </trkpt>
      <trkpt lat="58.582852258204" lon="15.919302787888">
        <ele>38</ele>
        <time>2019-12-22T07:58:17Z</time>
      </trkpt>
      <trkpt lat="58.582790148325" lon="15.919348385424">
        <ele>38.2</ele>
        <time>2019-12-22T07:58:20Z</time>
      </trkpt>
      <trkpt lat="58.582626198361" lon="15.91950210947">
        <ele>38.6</ele>
        <time>2019-12-22T07:58:28Z</time>
      </trkpt>
      <trkpt lat="58.582603315774" lon="15.919805618069">
        <ele>39.2</ele>
        <time>2019-12-22T07:58:35Z</time>
      </trkpt>
      <trkpt lat="58.582681015987" lon="15.920130584332">
        <ele>39.6</ele>
        <time>2019-12-22T07:58:42Z</time>
      </trkpt>
      <trkpt lat="58.582752262137" lon="15.920448509799">
        <ele>39.6</ele>
        <time>2019-12-22T07:58:49Z</time>
      </trkpt>
      <trkpt lat="58.582799116958" lon="15.920824857109">
        <ele>39</ele>
        <time>2019-12-22T07:58:57Z</time>
      </trkpt>
      <trkpt lat="58.582850414186" lon="15.921153930503">
        <ele>38</ele>
        <time>2019-12-22T07:59:04Z</time>
      </trkpt>
      <trkpt lat="58.582845552684" lon="15.92152885289">
        <ele>36.8</ele>
        <time>2019-12-22T07:59:11Z</time>
      </trkpt>
      <trkpt lat="58.582868351452" lon="15.921912492453">
        <ele>35.8</ele>
        <time>2019-12-22T07:59:18Z</time>
      </trkpt>
      <trkpt lat="58.582914703359" lon="15.922292695437">
        <ele>35.6</ele>
        <time>2019-12-22T07:59:25Z</time>
      </trkpt>
      <trkpt lat="58.582934568462" lon="15.922653787689">
        <ele>35</ele>
        <time>2019-12-22T07:59:32Z</time>
      </trkpt>
      <trkpt lat="58.582953511556" lon="15.923040277098">
        <ele>35</ele>
        <time>2019-12-22T07:59:40Z</time>
      </trkpt>
      <trkpt lat="58.582957534868" lon="15.923189474918">
        <ele>34.8</ele>
        <time>2019-12-22T07:59:43Z</time>
      </trkpt>
      <trkpt lat="58.582940771068" lon="15.923567247151">
        <ele>35</ele>
        <time>2019-12-22T07:59:51Z</time>
      </trkpt>
      <trkpt lat="58.582934400824" lon="15.923945606117">
        <ele>34.6</ele>
        <time>2019-12-22T07:59:59Z</time>
      </trkpt>
      <trkpt lat="58.582939262326" lon="15.924332682259">
        <ele>34.8</ele>
        <time>2019-12-22T08:00:07Z</time>
      </trkpt>
      <trkpt lat="58.582948063321" lon="15.924685811706">
        <ele>34.8</ele>
        <time>2019-12-22T08:00:14Z</time>
      </trkpt>
      <trkpt lat="58.582961641999" lon="15.925070289459">
        <ele>34.6</ele>
        <time>2019-12-22T08:00:22Z</time>
      </trkpt>
      <trkpt lat="58.583003300042" lon="15.925431800806">
        <ele>35</ele>
        <time>2019-12-22T08:00:30Z</time>
      </trkpt>
      <trkpt lat="58.583009418829" lon="15.925553673632">
        <ele>35.8</ele>
        <time>2019-12-22T08:00:33Z</time>
      </trkpt>
      <trkpt lat="58.583042275877" lon="15.925893643496">
        <ele>36.4</ele>
        <time>2019-12-22T08:00:41Z</time>
      </trkpt>
      <trkpt lat="58.583044706628" lon="15.925971762804">
        <ele>37</ele>
        <time>2019-12-22T08:00:43Z</time>
      </trkpt>
      <trkpt lat="58.583025931172" lon="15.926331430133">
        <ele>38</ele>
        <time>2019-12-22T08:00:51Z</time>
      </trkpt>
      <trkpt lat="58.583023081326" lon="15.926372585262">
        <ele>38.2</ele>
        <time>2019-12-22T08:00:52Z</time>
      </trkpt>
      <trkpt lat="58.583012771589" lon="15.926596214354">
        <ele>39.4</ele>
        <time>2019-12-22T08:00:58Z</time>
      </trkpt>
      <trkpt lat="58.583016711082" lon="15.926722110492">
        <ele>40.6</ele>
        <time>2019-12-22T08:01:02Z</time>
      </trkpt>
      <trkpt lat="58.583017549272" lon="15.926861752946">
        <ele>41.6</ele>
        <time>2019-12-22T08:01:06Z</time>
      </trkpt>
      <trkpt lat="58.583019560928" lon="15.926995695708">
        <ele>43</ele>
        <time>2019-12-22T08:01:10Z</time>
      </trkpt>
      <trkpt lat="58.583032552873" lon="15.92722938308">
        <ele>44</ele>
        <time>2019-12-22T08:01:16Z</time>
      </trkpt>
      <trkpt lat="58.583046383008" lon="15.927344885662">
        <ele>45</ele>
        <time>2019-12-22T08:01:19Z</time>
      </trkpt>
      <trkpt lat="58.583063314446" lon="15.927693572702">
        <ele>45.8</ele>
        <time>2019-12-22T08:01:27Z</time>
      </trkpt>
      <trkpt lat="58.583065745197" lon="15.928017449318">
        <ele>46.2</ele>
        <time>2019-12-22T08:01:34Z</time>
      </trkpt>
      <trkpt lat="58.583090387983" lon="15.928393461352">
        <ele>46.6</ele>
        <time>2019-12-22T08:01:42Z</time>
      </trkpt>
      <trkpt lat="58.583102877014" lon="15.928761007667">
        <ele>46.6</ele>
        <time>2019-12-22T08:01:50Z</time>
      </trkpt>
      <trkpt lat="58.583073121269" lon="15.929063091343">
        <ele>46.2</ele>
        <time>2019-12-22T08:01:57Z</time>
      </trkpt>
      <trkpt lat="58.582878242094" lon="15.929103408282">
        <ele>45.6</ele>
        <time>2019-12-22T08:02:05Z</time>
      </trkpt>
      <trkpt lat="58.582681099806" lon="15.929109191793">
        <ele>45.2</ele>
        <time>2019-12-22T08:02:13Z</time>
      </trkpt>
      <trkpt lat="58.582654361545" lon="15.929116316408">
        <ele>45</ele>
        <time>2019-12-22T08:02:14Z</time>
      </trkpt>
      <trkpt lat="58.582468618641" lon="15.929187814015">
        <ele>44.2</ele>
        <time>2019-12-22T08:02:21Z</time>
      </trkpt>
      <trkpt lat="58.582444814045" lon="15.929199045761">
        <ele>44</ele>
        <time>2019-12-22T08:02:22Z</time>
      </trkpt>
      <trkpt lat="58.582269632335" lon="15.929245062392">
        <ele>42.6</ele>
        <time>2019-12-22T08:02:29Z</time>
      </trkpt>
      <trkpt lat="58.5820714004" lon="15.929310525031">
        <ele>41.8</ele>
        <time>2019-12-22T08:02:37Z</time>
      </trkpt>
      <trkpt lat="58.582043237216" lon="15.929324103709">
        <ele>41.6</ele>
        <time>2019-12-22T08:02:38Z</time>
      </trkpt>
      <trkpt lat="58.581864870384" lon="15.929442875232">
        <ele>41.4</ele>
        <time>2019-12-22T08:02:44Z</time>
      </trkpt>
      <trkpt lat="58.581666470811" lon="15.929521078359">
        <ele>41</ele>
        <time>2019-12-22T08:02:51Z</time>
      </trkpt>
      <trkpt lat="58.581474441482" lon="15.929631216525">
        <ele>40.8</ele>
        <time>2019-12-22T08:02:59Z</time>
      </trkpt>
      <trkpt lat="58.581302863989" lon="15.929783683286">
        <ele>40.8</ele>
        <time>2019-12-22T08:03:06Z</time>
      </trkpt>
      <trkpt lat="58.581257937005" lon="15.929826766252">
        <ele>40.6</ele>
        <time>2019-12-22T08:03:08Z</time>
      </trkpt>
      <trkpt lat="58.581089712272" lon="15.929985435619">
        <ele>40.6</ele>
        <time>2019-12-22T08:03:15Z</time>
      </trkpt>
      <trkpt lat="58.580909752879" lon="15.930089203541">
        <ele>40.4</ele>
        <time>2019-12-22T08:03:23Z</time>
      </trkpt>
      <trkpt lat="58.580707162356" lon="15.930156258741">
        <ele>40.6</ele>
        <time>2019-12-22T08:03:31Z</time>
      </trkpt>
      <trkpt lat="58.580680088819" lon="15.930165059736">
        <ele>40.6</ele>
        <time>2019-12-22T08:03:32Z</time>
      </trkpt>
      <trkpt lat="58.580570705024" lon="15.93025021984">
        <ele>40.6</ele>
        <time>2019-12-22T08:03:37Z</time>
      </trkpt>
      <trkpt lat="58.580550169369" lon="15.930590441161">
        <ele>40.4</ele>
        <time>2019-12-22T08:03:44Z</time>
      </trkpt>
      <trkpt lat="58.580542709478" lon="15.930960669684">
        <ele>40.6</ele>
        <time>2019-12-22T08:03:52Z</time>
      </trkpt>
      <trkpt lat="58.580514630113" lon="15.931321007565">
        <ele>40</ele>
        <time>2019-12-22T08:03:59Z</time>
      </trkpt>
      <trkpt lat="58.580500045607" lon="15.931688972975">
        <ele>40</ele>
        <time>2019-12-22T08:04:06Z</time>
      </trkpt>
      <trkpt lat="58.580497531037" lon="15.931782850255">
        <ele>39.4</ele>
        <time>2019-12-22T08:04:08Z</time>
      </trkpt>
      <trkpt lat="58.580466853283" lon="15.932132291666">
        <ele>39</ele>
        <time>2019-12-22T08:04:15Z</time>
      </trkpt>
      <trkpt lat="58.580461405048" lon="15.932491623719">
        <ele>39</ele>
        <time>2019-12-22T08:04:22Z</time>
      </trkpt>
      <trkpt lat="58.580464003437" lon="15.932844753166">
        <ele>38.8</ele>
        <time>2019-12-22T08:04:29Z</time>
      </trkpt>
      <trkpt lat="58.580453609881" lon="15.93311599145">
        <ele>38.4</ele>
        <time>2019-12-22T08:04:34Z</time>
      </trkpt>
      <trkpt lat="58.580459812487" lon="15.933465684318">
        <ele>38</ele>
        <time>2019-12-22T08:04:41Z</time>
      </trkpt>
      <trkpt lat="58.580468948758" lon="15.933696270387">
        <ele>37.2</ele>
        <time>2019-12-22T08:04:46Z</time>
      </trkpt>
      <trkpt lat="58.58048135397" lon="15.93402039846">
        <ele>36.2</ele>
        <time>2019-12-22T08:04:53Z</time>
      </trkpt>
      <trkpt lat="58.580487556576" lon="15.934394817933">
        <ele>35.2</ele>
        <time>2019-12-22T08:05:01Z</time>
      </trkpt>
      <trkpt lat="58.580471966242" lon="15.934603527243">
        <ele>35</ele>
        <time>2019-12-22T08:05:05Z</time>
      </trkpt>
      <trkpt lat="58.580352105072" lon="15.934893289526">
        <ele>34.8</ele>
        <time>2019-12-22T08:05:12Z</time>
      </trkpt>
      <trkpt lat="58.580308519192" lon="15.935270223569">
        <ele>34.2</ele>
        <time>2019-12-22T08:05:19Z</time>
      </trkpt>
      <trkpt lat="58.580331150322" lon="15.935642547567">
        <ele>34.4</ele>
        <time>2019-12-22T08:05:26Z</time>
      </trkpt>
      <trkpt lat="58.580397367332" lon="15.935997940127">
        <ele>34.4</ele>
        <time>2019-12-22T08:05:34Z</time>
      </trkpt>
      <trkpt lat="58.580416478064" lon="15.936083100231">
        <ele>34</ele>
        <time>2019-12-22T08:05:36Z</time>
      </trkpt>
      <trkpt lat="58.580507756955" lon="15.936387279382">
        <ele>34</ele>
        <time>2019-12-22T08:05:43Z</time>
      </trkpt>
      <trkpt lat="58.580613871809" lon="15.936721633373">
        <ele>33.4</ele>
        <time>2019-12-22T08:05:51Z</time>
      </trkpt>
      <trkpt lat="58.58070598889" lon="15.937018855547">
        <ele>33</ele>
        <time>2019-12-22T08:05:58Z</time>
      </trkpt>
      <trkpt lat="58.580722836509" lon="15.937064536902">
        <ele>33</ele>
        <time>2019-12-22T08:05:59Z</time>
      </trkpt>
      <trkpt lat="58.580797770695" lon="15.937394448486">
        <ele>32.4</ele>
        <time>2019-12-22T08:06:06Z</time>
      </trkpt>
      <trkpt lat="58.580729961124" lon="15.937714050333">
        <ele>31.4</ele>
        <time>2019-12-22T08:06:13Z</time>
      </trkpt>
      <trkpt lat="58.58074957477" lon="15.937975733251">
        <ele>30.4</ele>
        <time>2019-12-22T08:06:18Z</time>
      </trkpt>
      <trkpt lat="58.58079483703" lon="15.938340932634">
        <ele>30.6</ele>
        <time>2019-12-22T08:06:25Z</time>
      </trkpt>
      <trkpt lat="58.58083507015" lon="15.938694648814">
        <ele>30</ele>
        <time>2019-12-22T08:06:32Z</time>
      </trkpt>
      <trkpt lat="58.58086189223" lon="15.939048616451">
        <ele>30</ele>
        <time>2019-12-22T08:06:39Z</time>
      </trkpt>
      <trkpt lat="58.580887121749" lon="15.939388921591">
        <ele>30</ele>
        <time>2019-12-22T08:06:46Z</time>
      </trkpt>
      <trkpt lat="58.580930456172" lon="15.939750600576">
        <ele>30.2</ele>
        <time>2019-12-22T08:06:54Z</time>
      </trkpt>
      <trkpt lat="58.581018047027" lon="15.940104735851">
        <ele>30.2</ele>
        <time>2019-12-22T08:07:02Z</time>
      </trkpt>
      <trkpt lat="58.581106978986" lon="15.940415955798">
        <ele>30.6</ele>
        <time>2019-12-22T08:07:09Z</time>
      </trkpt>
      <trkpt lat="58.581185601208" lon="15.940743604269">
        <ele>31</ele>
        <time>2019-12-22T08:07:17Z</time>
      </trkpt>
      <trkpt lat="58.581260451575" lon="15.941035545846">
        <ele>31.6</ele>
        <time>2019-12-22T08:07:24Z</time>
      </trkpt>
      <trkpt lat="58.58126338524" lon="15.941080556649">
        <ele>31.6</ele>
        <time>2019-12-22T08:07:25Z</time>
      </trkpt>
      <trkpt lat="58.581265983629" lon="15.941159178871">
        <ele>32</ele>
        <time>2019-12-22T08:07:27Z</time>
      </trkpt>
      <trkpt lat="58.581209573442" lon="15.941189605168">
        <ele>32.6</ele>
        <time>2019-12-22T08:07:30Z</time>
      </trkpt>
      <trkpt lat="58.581061968183" lon="15.941208045348">
        <ele>34</ele>
        <time>2019-12-22T08:07:36Z</time>
      </trkpt>
      <trkpt lat="58.580879829496" lon="15.941213242126">
        <ele>34.2</ele>
        <time>2019-12-22T08:07:43Z</time>
      </trkpt>
      <trkpt lat="58.580695260058" lon="15.941159765604">
        <ele>33.6</ele>
        <time>2019-12-22T08:07:50Z</time>
      </trkpt>
      <trkpt lat="58.58060708247" lon="15.941131267144">
        <ele>33</ele>
        <time>2019-12-22T08:07:54Z</time>
      </trkpt>
      <trkpt lat="58.580470792776" lon="15.94106035627">
        <ele>32</ele>
        <time>2019-12-22T08:08:00Z</time>
      </trkpt>
      <trkpt lat="58.580286474795" lon="15.940955917796">
        <ele>31.2</ele>
        <time>2019-12-22T08:08:07Z</time>
      </trkpt>
      <trkpt lat="58.580234004101" lon="15.940929766268">
        <ele>30.6</ele>
        <time>2019-12-22T08:08:09Z</time>
      </trkpt>
      <trkpt lat="58.580042477686" lon="15.94084158868">
        <ele>30</ele>
        <time>2019-12-22T08:08:15Z</time>
      </trkpt>
      <trkpt lat="58.579897303178" lon="15.940767744141">
        <ele>29.6</ele>
        <time>2019-12-22T08:08:20Z</time>
      </trkpt>
      <trkpt lat="58.579693958284" lon="15.940747376124">
        <ele>29.4</ele>
        <time>2019-12-22T08:08:27Z</time>
      </trkpt>
      <trkpt lat="58.579499498204" lon="15.940762212087">
        <ele>29</ele>
        <time>2019-12-22T08:08:34Z</time>
      </trkpt>
      <trkpt lat="58.579305876314" lon="15.940784675579">
        <ele>29</ele>
        <time>2019-12-22T08:08:42Z</time>
      </trkpt>
      <trkpt lat="58.579100603583" lon="15.940864638905">
        <ele>29.4</ele>
        <time>2019-12-22T08:08:50Z</time>
      </trkpt>
      <trkpt lat="58.578910921186" lon="15.940865980009">
        <ele>29.6</ele>
        <time>2019-12-22T08:08:57Z</time>
      </trkpt>
      <trkpt lat="58.578705396998" lon="15.940833793513">
        <ele>30</ele>
        <time>2019-12-22T08:09:05Z</time>
      </trkpt>
      <trkpt lat="58.578524850872" lon="15.940795823506">
        <ele>30.4</ele>
        <time>2019-12-22T08:09:12Z</time>
      </trkpt>
      <trkpt lat="58.578397110716" lon="15.940739916233">
        <ele>30.6</ele>
        <time>2019-12-22T08:09:17Z</time>
      </trkpt>
      <trkpt lat="58.578220084988" lon="15.940681242933">
        <ele>31</ele>
        <time>2019-12-22T08:09:24Z</time>
      </trkpt>
      <trkpt lat="58.578077089774" lon="15.940605889652">
        <ele>31.8</ele>
        <time>2019-12-22T08:09:30Z</time>
      </trkpt>
      <trkpt lat="58.577881623866" lon="15.94050379811">
        <ele>31.8</ele>
        <time>2019-12-22T08:09:37Z</time>
      </trkpt>
      <trkpt lat="58.577699568998" lon="15.940364574751">
        <ele>31.4</ele>
        <time>2019-12-22T08:09:44Z</time>
      </trkpt>
      <trkpt lat="58.577526147487" lon="15.940190650326">
        <ele>31.4</ele>
        <time>2019-12-22T08:09:51Z</time>
      </trkpt>
      <trkpt lat="58.577421289918" lon="15.94004279361">
        <ele>30.6</ele>
        <time>2019-12-22T08:09:56Z</time>
      </trkpt>
      <trkpt lat="58.577285838414" lon="15.939805082926">
        <ele>30.8</ele>
        <time>2019-12-22T08:10:03Z</time>
      </trkpt>
      <trkpt lat="58.577268404062" lon="15.939776584466">
        <ele>30.8</ele>
        <time>2019-12-22T08:10:04Z</time>
      </trkpt>
      <trkpt lat="58.577182657225" lon="15.94009559958">
        <ele>31.6</ele>
        <time>2019-12-22T08:10:12Z</time>
      </trkpt>
      <trkpt lat="58.577166815434" lon="15.940193835448">
        <ele>31.8</ele>
        <time>2019-12-22T08:10:14Z</time>
      </trkpt>
      <trkpt lat="58.57711434474" lon="15.940561130306">
        <ele>32.4</ele>
        <time>2019-12-22T08:10:22Z</time>
      </trkpt>
      <trkpt lat="58.577098335311" lon="15.940640842175">
        <ele>33</ele>
        <time>2019-12-22T08:10:24Z</time>
      </trkpt>
      <trkpt lat="58.57705148049" lon="15.940872769348">
        <ele>34.2</ele>
        <time>2019-12-22T08:10:29Z</time>
      </trkpt>
      <trkpt lat="58.576965566015" lon="15.941206620425">
        <ele>34.6</ele>
        <time>2019-12-22T08:10:36Z</time>
      </trkpt>
      <trkpt lat="58.576899349005" lon="15.941531670507">
        <ele>35</ele>
        <time>2019-12-22T08:10:43Z</time>
      </trkpt>
      <trkpt lat="58.576887446707" lon="15.941564024641">
        <ele>35.2</ele>
        <time>2019-12-22T08:10:44Z</time>
      </trkpt>
      <trkpt lat="58.576733890299" lon="15.941738284342">
        <ele>35.8</ele>
        <time>2019-12-22T08:10:52Z</time>
      </trkpt>
      <trkpt lat="58.576666416004" lon="15.941828389767">
        <ele>36.4</ele>
        <time>2019-12-22T08:10:56Z</time>
      </trkpt>
      <trkpt lat="58.576511183216" lon="15.941972642266">
        <ele>37.4</ele>
        <time>2019-12-22T08:11:03Z</time>
      </trkpt>
      <trkpt lat="58.576410684235" lon="15.942264667662">
        <ele>38.4</ele>
        <time>2019-12-22T08:11:11Z</time>
      </trkpt>
      <trkpt lat="58.576349244908" lon="15.942623496801">
        <ele>38.2</ele>
        <time>2019-12-22T08:11:18Z</time>
      </trkpt>
      <trkpt lat="58.576327116692" lon="15.942985343424">
        <ele>38</ele>
        <time>2019-12-22T08:11:25Z</time>
      </trkpt>
      <trkpt lat="58.576300126974" lon="15.943324558917">
        <ele>37.6</ele>
        <time>2019-12-22T08:11:32Z</time>
      </trkpt>
      <trkpt lat="58.576288224676" lon="15.94349529822">
        <ele>36.4</ele>
        <time>2019-12-22T08:11:36Z</time>
      </trkpt>
      <trkpt lat="58.576288811409" lon="15.943555983176">
        <ele>35.8</ele>
        <time>2019-12-22T08:11:38Z</time>
      </trkpt>
      <trkpt lat="58.576278920767" lon="15.943564616533">
        <ele>35.4</ele>
        <time>2019-12-22T08:11:39Z</time>
      </trkpt>
      <trkpt lat="58.576103068505" lon="15.943595126649">
        <ele>34.8</ele>
        <time>2019-12-22T08:11:47Z</time>
      </trkpt>
      <trkpt lat="58.576042132092" lon="15.943504937405">
        <ele>34.6</ele>
        <time>2019-12-22T08:11:50Z</time>
      </trkpt>
      <trkpt lat="58.575987985018" lon="15.943332940817">
        <ele>34.6</ele>
        <time>2019-12-22T08:11:54Z</time>
      </trkpt>
      <trkpt lat="58.576044227567" lon="15.943001436672">
        <ele>34.8</ele>
        <time>2019-12-22T08:12:01Z</time>
      </trkpt>
      <trkpt lat="58.576127124558" lon="15.94269482677">
        <ele>35.6</ele>
        <time>2019-12-22T08:12:09Z</time>
      </trkpt>
      <trkpt lat="58.576143804539" lon="15.942538336697">
        <ele>36.4</ele>
        <time>2019-12-22T08:12:13Z</time>
      </trkpt>
      <trkpt lat="58.576139697408" lon="15.942285957688">
        <ele>37.6</ele>
        <time>2019-12-22T08:12:20Z</time>
      </trkpt>
      <trkpt lat="58.576163082909" lon="15.942250502251">
        <ele>37.6</ele>
        <time>2019-12-22T08:12:22Z</time>
      </trkpt>
      <trkpt lat="58.576190994636" lon="15.942248658233">
        <ele>38</ele>
        <time>2019-12-22T08:12:24Z</time>
      </trkpt>
      <trkpt lat="58.576313202738" lon="15.942218818669">
        <ele>38.6</ele>
        <time>2019-12-22T08:12:30Z</time>
      </trkpt>
      <trkpt lat="58.576460724178" lon="15.942018575078">
        <ele>37.8</ele>
        <time>2019-12-22T08:12:37Z</time>
      </trkpt>
      <trkpt lat="58.57648234948" lon="15.941990579532">
        <ele>37.6</ele>
        <time>2019-12-22T08:12:38Z</time>
      </trkpt>
      <trkpt lat="58.576638420458" lon="15.941821684247">
        <ele>36.8</ele>
        <time>2019-12-22T08:12:45Z</time>
      </trkpt>
      <trkpt lat="58.576744283855" lon="15.941689334046">
        <ele>36.6</ele>
        <time>2019-12-22T08:12:50Z</time>
      </trkpt>
      <trkpt lat="58.576894068408" lon="15.941470398818">
        <ele>35.8</ele>
        <time>2019-12-22T08:12:57Z</time>
      </trkpt>
      <trkpt lat="58.576928937112" lon="15.941304353379">
        <ele>35.4</ele>
        <time>2019-12-22T08:13:00Z</time>
      </trkpt>
      <trkpt lat="58.57697855796" lon="15.941036216398">
        <ele>34</ele>
        <time>2019-12-22T08:13:05Z</time>
      </trkpt>
      <trkpt lat="58.577036812165" lon="15.940665987875">
        <ele>33.4</ele>
        <time>2019-12-22T08:13:13Z</time>
      </trkpt>
      <trkpt lat="58.577088779945" lon="15.940351498987">
        <ele>33</ele>
        <time>2019-12-22T08:13:20Z</time>
      </trkpt>
      <trkpt lat="58.577136808232" lon="15.940085792757">
        <ele>31.8</ele>
        <time>2019-12-22T08:13:25Z</time>
      </trkpt>
      <trkpt lat="58.577222555069" lon="15.939796449569">
        <ele>30.8</ele>
        <time>2019-12-22T08:13:31Z</time>
      </trkpt>
      <trkpt lat="58.577207300011" lon="15.939462347035">
        <ele>30.6</ele>
        <time>2019-12-22T08:13:38Z</time>
      </trkpt>
      <trkpt lat="58.577129013065" lon="15.939140565894">
        <ele>30.8</ele>
        <time>2019-12-22T08:13:45Z</time>
      </trkpt>
      <trkpt lat="58.57706153877" lon="15.938784921877">
        <ele>30.8</ele>
        <time>2019-12-22T08:13:53Z</time>
      </trkpt>
      <trkpt lat="58.576984760566" lon="15.938420309227">
        <ele>31</ele>
        <time>2019-12-22T08:14:01Z</time>
      </trkpt>
      <trkpt lat="58.576908066181" lon="15.938095594421">
        <ele>31</ele>
        <time>2019-12-22T08:14:08Z</time>
      </trkpt>
      <trkpt lat="58.576847716501" lon="15.937771047253">
        <ele>31</ele>
        <time>2019-12-22T08:14:15Z</time>
      </trkpt>
      <trkpt lat="58.57676901046" lon="15.937462677152">
        <ele>30.2</ele>
        <time>2019-12-22T08:14:22Z</time>
      </trkpt>
      <trkpt lat="58.576687454573" lon="15.93713762707">
        <ele>30.4</ele>
        <time>2019-12-22T08:14:31Z</time>
      </trkpt>
      <trkpt lat="58.576590727447" lon="15.937083647634">
        <ele>29.8</ele>
        <time>2019-12-22T08:14:36Z</time>
      </trkpt>
      <trkpt lat="58.576425687836" lon="15.937218177129">
        <ele>29.6</ele>
        <time>2019-12-22T08:14:43Z</time>
      </trkpt>
      <trkpt lat="58.576242794778" lon="15.93732873439">
        <ele>29.4</ele>
        <time>2019-12-22T08:14:50Z</time>
      </trkpt>
      <trkpt lat="58.576056297503" lon="15.937376762677">
        <ele>29.8</ele>
        <time>2019-12-22T08:14:56Z</time>
      </trkpt>
      <trkpt lat="58.575866615106" lon="15.937365195655">
        <ele>29.6</ele>
        <time>2019-12-22T08:15:03Z</time>
      </trkpt>
      <trkpt lat="58.575681375116" lon="15.93735220371">
        <ele>29.8</ele>
        <time>2019-12-22T08:15:10Z</time>
      </trkpt>
      <trkpt lat="58.575495967488" lon="15.93739159864">
        <ele>29.6</ele>
        <time>2019-12-22T08:15:16Z</time>
      </trkpt>
      <trkpt lat="58.57531139805" lon="15.937446583904">
        <ele>30</ele>
        <time>2019-12-22T08:15:23Z</time>
      </trkpt>
      <trkpt lat="58.57512112892" lon="15.937533420388">
        <ele>30.2</ele>
        <time>2019-12-22T08:15:31Z</time>
      </trkpt>
      <trkpt lat="58.574941672441" lon="15.937678175801">
        <ele>30.4</ele>
        <time>2019-12-22T08:15:40Z</time>
      </trkpt>
      <trkpt lat="58.574767915654" lon="15.937841036118">
        <ele>30.4</ele>
        <time>2019-12-22T08:15:47Z</time>
      </trkpt>
      <trkpt lat="58.574671272347" lon="15.937913120458">
        <ele>30.8</ele>
        <time>2019-12-22T08:15:51Z</time>
      </trkpt>
      <trkpt lat="58.574506148917" lon="15.938051337989">
        <ele>31.8</ele>
        <time>2019-12-22T08:15:59Z</time>
      </trkpt>
      <trkpt lat="58.574323926411" lon="15.938161140879">
        <ele>31.8</ele>
        <time>2019-12-22T08:16:06Z</time>
      </trkpt>
      <trkpt lat="58.574280759626" lon="15.938215623229">
        <ele>32</ele>
        <time>2019-12-22T08:16:08Z</time>
      </trkpt>
      <trkpt lat="58.574116725843" lon="15.938437240665">
        <ele>32.4</ele>
        <time>2019-12-22T08:16:16Z</time>
      </trkpt>
      <trkpt lat="58.573959481399" lon="15.938622396836">
        <ele>32.4</ele>
        <time>2019-12-22T08:16:23Z</time>
      </trkpt>
      <trkpt lat="58.573783629137" lon="15.938753322114">
        <ele>32.4</ele>
        <time>2019-12-22T08:16:30Z</time>
      </trkpt>
      <trkpt lat="58.573607944513" lon="15.938901430287">
        <ele>33</ele>
        <time>2019-12-22T08:16:37Z</time>
      </trkpt>
      <trkpt lat="58.573440306513" lon="15.939026152959">
        <ele>33</ele>
        <time>2019-12-22T08:16:44Z</time>
      </trkpt>
      <trkpt lat="58.573252468134" lon="15.939140146799">
        <ele>33.6</ele>
        <time>2019-12-22T08:16:52Z</time>
      </trkpt>
      <trkpt lat="58.573086757971" lon="15.939272329362">
        <ele>34.2</ele>
        <time>2019-12-22T08:16:59Z</time>
      </trkpt>
      <trkpt lat="58.572920628713" lon="15.939405266296">
        <ele>34</ele>
        <time>2019-12-22T08:17:06Z</time>
      </trkpt>
      <trkpt lat="58.572735807818" lon="15.93952646857">
        <ele>34.8</ele>
        <time>2019-12-22T08:17:14Z</time>
      </trkpt>
      <trkpt lat="58.572667998247" lon="15.939590003372">
        <ele>35.2</ele>
        <time>2019-12-22T08:17:17Z</time>
      </trkpt>
      <trkpt lat="58.572481333334" lon="15.939753785698">
        <ele>35.8</ele>
        <time>2019-12-22T08:17:25Z</time>
      </trkpt>
      <trkpt lat="58.572307995642" lon="15.939860235828">
        <ele>36</ele>
        <time>2019-12-22T08:17:32Z</time>
      </trkpt>
      <trkpt lat="58.572193750345" lon="15.939619423841">
        <ele>36.2</ele>
        <time>2019-12-22T08:17:38Z</time>
      </trkpt>
      <trkpt lat="58.572104315472" lon="15.939313819767">
        <ele>36.6</ele>
        <time>2019-12-22T08:17:45Z</time>
      </trkpt>
      <trkpt lat="58.572031728218" lon="15.938972005885">
        <ele>37.2</ele>
        <time>2019-12-22T08:17:53Z</time>
      </trkpt>
      <trkpt lat="58.571972719642" lon="15.938641759025">
        <ele>38.4</ele>
        <time>2019-12-22T08:18:01Z</time>
      </trkpt>
      <trkpt lat="58.571917818197" lon="15.938424332539">
        <ele>39.2</ele>
        <time>2019-12-22T08:18:09Z</time>
      </trkpt>
    </trkseg>
  </trk>
</gpx>